KAL1234 LIMC-RKSI
Flight info
| Callsign | KAL1234 |
|---|---|
| Flight time | N/A |
| Altitude | 36000 |
| Route | OSKOR DCT NEVNI DCT NOBMI DCT KUBUD/N0485F350 DCT GORPA DCT ZINPE DCT MAVIT DCT IVDEK/N0484F370 DCT DINRO DCT UDROS UN743 GAKSU UT310 SIN UN644 KARDE UL851 TBN UR317 REBLO DCT TABAS DCT MATAL T916 BALUN/K0900F370 T916 KUNAS/K0898F390 T916 PIGAL M610 RULAD/K0896S1190 A343 POSOT B215 FKG W188 LIKMI W270 BOTKI/K0895S1250 W270 DKO W69 HUR B339 LADIX W34 VAPGU W100 ORAVA W201 UNSEK A326 DONVO G597 AGAVO/N0488F410 Y644 REBIT REBIT2H |
| Aircraft | A359/H-SDE2E3GHIJ3J4J5LM1ORWXY/LB1D1 |
Departure
| Time | 2026-05-04 17:56 |
|---|---|
| Airport | Milan Malpensa International Airport (LIMC) |
Arrival
| Time | N/A |
|---|---|
| Airport | Incheon International Airport (RKSI) |
| Time | Latitude | Longitude | Altitude | Speed | Heading |
|---|---|---|---|---|---|
| 2026-05-04 16:58 | 45.61695 | 8.71961 | 759 ft | 0 kts | 258° |
| 2026-05-04 17:10 | 45.61704 | 8.72027 | 759 ft | 4 kts | 259° |
| 2026-05-04 17:11 | 45.61708 | 8.72060 | 759 ft | 4 kts | 252° |
| 2026-05-04 17:11 | 45.61720 | 8.72085 | 759 ft | 4 kts | 187° |
| 2026-05-04 17:11 | 45.61751 | 8.72079 | 759 ft | 5 kts | 168° |
| 2026-05-04 17:14 | 45.61683 | 8.72099 | 759 ft | 6 kts | 169° |
| 2026-05-04 17:14 | 45.61638 | 8.72111 | 759 ft | 7 kts | 169° |
| 2026-05-04 17:14 | 45.61533 | 8.72139 | 759 ft | 8 kts | 169° |
| 2026-05-04 17:15 | 45.61468 | 8.72157 | 759 ft | 10 kts | 169° |
| 2026-05-04 17:15 | 45.61380 | 8.72210 | 759 ft | 3 kts | 94° |
| 2026-05-04 17:16 | 45.61385 | 8.72285 | 759 ft | 5 kts | 78° |
| 2026-05-04 17:16 | 45.61405 | 8.72459 | 758 ft | 2 kts | 122° |
| 2026-05-04 17:17 | 45.61391 | 8.72474 | 758 ft | 2 kts | 150° |
| 2026-05-04 17:17 | 45.61289 | 8.72517 | 758 ft | 8 kts | 170° |
| 2026-05-04 17:18 | 45.61225 | 8.72534 | 758 ft | 10 kts | 168° |
| 2026-05-04 17:18 | 45.61093 | 8.72596 | 758 ft | 0 kts | 133° |
| 2026-05-04 17:23 | 45.61083 | 8.72687 | 756 ft | 12 kts | 87° |
| 2026-05-04 17:23 | 45.61134 | 8.72796 | 754 ft | 16 kts | 11° |
| 2026-05-04 17:23 | 45.61409 | 8.72720 | 754 ft | 20 kts | 322° |
| 2026-05-04 17:24 | 45.61428 | 8.72581 | 756 ft | 14 kts | 265° |
| 2026-05-04 17:24 | 45.61423 | 8.72509 | 758 ft | 1 kts | 257° |
| 2026-05-04 17:25 | 45.61417 | 8.72481 | 758 ft | 6 kts | 253° |
| 2026-05-04 17:25 | 45.61386 | 8.72274 | 759 ft | 15 kts | 260° |
| 2026-05-04 17:26 | 45.61527 | 8.72139 | 759 ft | 18 kts | 347° |
| 2026-05-04 17:26 | 45.61634 | 8.72150 | 759 ft | 4 kts | 181° |
| 2026-05-04 17:27 | 45.61534 | 8.72200 | 759 ft | 11 kts | 131° |
| 2026-05-04 17:27 | 45.61514 | 8.72255 | 759 ft | 0 kts | 116° |
| 2026-05-04 17:40 | 45.61513 | 8.72255 | 759 ft | 1 kts | 116° |
| 2026-05-04 17:40 | 45.61499 | 8.72303 | 759 ft | 10 kts | 112° |
| 2026-05-04 17:40 | 45.61473 | 8.72342 | 759 ft | 1 kts | 146° |
| 2026-05-04 17:40 | 45.61441 | 8.72362 | 759 ft | 10 kts | 154° |
| 2026-05-04 17:41 | 45.61364 | 8.72452 | 758 ft | 19 kts | 134° |
| 2026-05-04 17:41 | 45.61226 | 8.72535 | 758 ft | 25 kts | 169° |
| 2026-05-04 17:41 | 45.61106 | 8.72575 | 758 ft | 12 kts | 150° |
| 2026-05-04 17:41 | 45.61084 | 8.72702 | 756 ft | 17 kts | 80° |
| 2026-05-04 17:42 | 45.61110 | 8.72915 | 755 ft | 26 kts | 79° |
| 2026-05-04 17:42 | 45.61190 | 8.73127 | 759 ft | 25 kts | 31° |
| 2026-05-04 17:42 | 45.61363 | 8.73259 | 759 ft | 29 kts | 16° |
| 2026-05-04 17:42 | 45.61576 | 8.73229 | 759 ft | 28 kts | 9° |
| 2026-05-04 17:43 | 45.61614 | 8.73288 | 759 ft | 10 kts | 71° |
| 2026-05-04 17:43 | 45.61626 | 8.73432 | 759 ft | 18 kts | 104° |
| 2026-05-04 17:43 | 45.61590 | 8.73638 | 755 ft | 26 kts | 78° |
| 2026-05-04 17:43 | 45.61733 | 8.73704 | 752 ft | 29 kts | 349° |
| 2026-05-04 17:44 | 45.61957 | 8.73642 | 751 ft | 1 kts | 349° |
| 2026-05-04 17:44 | 45.61958 | 8.73642 | 751 ft | 1 kts | 349° |
| 2026-05-04 17:45 | 45.61991 | 8.73633 | 751 ft | 9 kts | 350° |
| 2026-05-04 17:45 | 45.62085 | 8.73607 | 751 ft | 18 kts | 348° |
| 2026-05-04 17:45 | 45.62234 | 8.73567 | 753 ft | 25 kts | 349° |
| 2026-05-04 17:45 | 45.62423 | 8.73515 | 754 ft | 31 kts | 344° |
| 2026-05-04 17:46 | 45.62574 | 8.73299 | 758 ft | 32 kts | 306° |
| 2026-05-04 17:46 | 45.62701 | 8.73031 | 759 ft | 20 kts | 302° |
| 2026-05-04 17:46 | 45.62701 | 8.72924 | 759 ft | 5 kts | 213° |
| 2026-05-04 17:46 | 45.62651 | 8.72920 | 759 ft | 11 kts | 176° |
| 2026-05-04 17:47 | 45.62555 | 8.72940 | 759 ft | 15 kts | 181° |
| 2026-05-04 17:47 | 45.62446 | 8.72866 | 759 ft | 20 kts | 214° |
| 2026-05-04 17:47 | 45.62313 | 8.72734 | 758 ft | 26 kts | 218° |
| 2026-05-04 17:47 | 45.62244 | 8.72476 | 752 ft | 31 kts | 258° |
| 2026-05-04 17:48 | 45.62216 | 8.72311 | 757 ft | 11 kts | 239° |
| 2026-05-04 17:48 | 45.62145 | 8.72279 | 758 ft | 13 kts | 173° |
| 2026-05-04 17:48 | 45.62032 | 8.72309 | 758 ft | 20 kts | 168° |
| 2026-05-04 17:48 | 45.61885 | 8.72322 | 759 ft | 19 kts | 211° |
| 2026-05-04 17:49 | 45.61770 | 8.72272 | 759 ft | 20 kts | 172° |
| 2026-05-04 17:49 | 45.61614 | 8.72317 | 759 ft | 26 kts | 169° |
| 2026-05-04 17:49 | 45.61446 | 8.72363 | 759 ft | 16 kts | 167° |
| 2026-05-04 17:49 | 45.61427 | 8.72360 | 759 ft | 5 kts | 191° |
| 2026-05-04 17:50 | 45.61402 | 8.72350 | 759 ft | 2 kts | 158° |
| 2026-05-04 17:50 | 45.61388 | 8.72390 | 759 ft | 8 kts | 117° |
| 2026-05-04 17:50 | 45.61336 | 8.72487 | 758 ft | 15 kts | 144° |
| 2026-05-04 17:50 | 45.61212 | 8.72538 | 758 ft | 22 kts | 168° |
| 2026-05-04 17:51 | 45.61086 | 8.72633 | 757 ft | 21 kts | 100° |
| 2026-05-04 17:51 | 45.61105 | 8.72873 | 754 ft | 28 kts | 79° |
| 2026-05-04 17:51 | 45.61189 | 8.73106 | 759 ft | 28 kts | 36° |
| 2026-05-04 17:51 | 45.61355 | 8.73255 | 759 ft | 28 kts | 21° |
| 2026-05-04 17:52 | 45.61534 | 8.73232 | 759 ft | 8 kts | 348° |
| 2026-05-04 17:52 | 45.61545 | 8.73229 | 759 ft | 0 kts | 348° |
| 2026-05-04 17:53 | 45.61560 | 8.73224 | 759 ft | 5 kts | 348° |
| 2026-05-04 17:53 | 45.61603 | 8.73255 | 759 ft | 9 kts | 52° |
| 2026-05-04 17:53 | 45.61628 | 8.73363 | 759 ft | 14 kts | 79° |
| 2026-05-04 17:53 | 45.61600 | 8.73508 | 758 ft | 18 kts | 115° |
| 2026-05-04 17:54 | 45.61588 | 8.73596 | 757 ft | 0 kts | 84° |
| 2026-05-04 17:55 | 45.61588 | 8.73598 | 757 ft | 1 kts | 84° |
| 2026-05-04 17:55 | 45.61592 | 8.73640 | 755 ft | 8 kts | 79° |
| 2026-05-04 17:55 | 45.61638 | 8.73717 | 751 ft | 11 kts | 14° |
| 2026-05-04 17:56 | 45.61721 | 8.73706 | 751 ft | 17 kts | 348° |
| 2026-05-04 17:56 | 45.62079 | 8.73610 | 752 ft | 91 kts | 348° |
| 2026-05-04 17:56 | 45.62945 | 8.73370 | 750 ft | 161 kts | 349° |
| 2026-05-04 17:56 | 45.64103 | 8.73051 | 1411 ft | 166 kts | 348° |
| 2026-05-04 17:57 | 45.65276 | 8.73260 | 1939 ft | 185 kts | 29° |
| 2026-05-04 17:57 | 45.66301 | 8.74537 | 2408 ft | 205 kts | 47° |
| 2026-05-04 17:57 | 45.67282 | 8.76062 | 3274 ft | 210 kts | 47° |
| 2026-05-04 17:57 | 45.68300 | 8.77578 | 4185 ft | 213 kts | 45° |
| 2026-05-04 17:58 | 45.69288 | 8.79176 | 5016 ft | 218 kts | 56° |
| 2026-05-04 17:58 | 45.69753 | 8.81219 | 5810 ft | 220 kts | 90° |
| 2026-05-04 17:58 | 45.69309 | 8.83322 | 6348 ft | 235 kts | 126° |
| 2026-05-04 17:58 | 45.68050 | 8.84824 | 6660 ft | 241 kts | 154° |
| 2026-05-04 17:59 | 45.66525 | 8.85882 | 7086 ft | 245 kts | 154° |
| 2026-05-04 17:59 | 45.64976 | 8.86972 | 7570 ft | 250 kts | 154° |
| 2026-05-04 17:59 | 45.61849 | 8.89235 | 8671 ft | 254 kts | 153° |
| 2026-05-04 18:00 | 45.60260 | 8.90371 | 9197 ft | 257 kts | 157° |
| 2026-05-04 18:00 | 45.57024 | 8.91224 | 9828 ft | 274 kts | 176° |
| 2026-05-04 18:00 | 45.55068 | 8.91422 | 10045 ft | 289 kts | 176° |
| 2026-05-04 18:01 | 45.53021 | 8.91728 | 10243 ft | 304 kts | 168° |
| 2026-05-04 18:01 | 45.51094 | 8.92985 | 10400 ft | 319 kts | 141° |
| 2026-05-04 18:01 | 45.49723 | 8.95512 | 10571 ft | 332 kts | 114° |
| 2026-05-04 18:02 | 45.48853 | 9.02189 | 10958 ft | 355 kts | 97° |
| 2026-05-04 18:02 | 45.48523 | 9.05733 | 11150 ft | 365 kts | 98° |
| 2026-05-04 18:02 | 45.48153 | 9.09364 | 11333 ft | 374 kts | 99° |
| 2026-05-04 18:02 | 45.47754 | 9.13069 | 11502 ft | 383 kts | 99° |
| 2026-05-04 18:03 | 45.47335 | 9.16849 | 11656 ft | 390 kts | 99° |
| 2026-05-04 18:03 | 45.46902 | 9.20695 | 11859 ft | 395 kts | 99° |
| 2026-05-04 18:03 | 45.46573 | 9.24594 | 12103 ft | 398 kts | 92° |
| 2026-05-04 18:03 | 45.46901 | 9.28505 | 12350 ft | 401 kts | 74° |
| 2026-05-04 18:04 | 45.48019 | 9.32094 | 12614 ft | 403 kts | 60° |
| 2026-05-04 18:04 | 45.49459 | 9.35530 | 12867 ft | 405 kts | 58° |
| 2026-05-04 18:04 | 45.52411 | 9.42409 | 13354 ft | 409 kts | 59° |
| 2026-05-04 18:05 | 45.53889 | 9.45887 | 13592 ft | 410 kts | 59° |
| 2026-05-04 18:05 | 45.55327 | 9.49408 | 13812 ft | 412 kts | 63° |
| 2026-05-04 18:05 | 45.56310 | 9.53246 | 14026 ft | 413 kts | 76° |
| 2026-05-04 18:05 | 45.56951 | 9.57253 | 14249 ft | 415 kts | 78° |
| 2026-05-04 18:06 | 45.58127 | 9.65287 | 14660 ft | 418 kts | 78° |
| 2026-05-04 18:06 | 45.58724 | 9.69347 | 14858 ft | 419 kts | 78° |
| 2026-05-04 18:06 | 45.59324 | 9.73417 | 15049 ft | 420 kts | 78° |
| 2026-05-04 18:07 | 45.59928 | 9.77508 | 15243 ft | 422 kts | 78° |
| 2026-05-04 18:07 | 45.60533 | 9.81615 | 15402 ft | 424 kts | 78° |
| 2026-05-04 18:07 | 45.61142 | 9.85752 | 15483 ft | 427 kts | 78° |
| 2026-05-04 18:07 | 45.61755 | 9.89925 | 15552 ft | 431 kts | 78° |
| 2026-05-04 18:08 | 45.62371 | 9.94133 | 15617 ft | 434 kts | 78° |
| 2026-05-04 18:08 | 45.62991 | 9.98374 | 15681 ft | 438 kts | 78° |
| 2026-05-04 18:08 | 45.63604 | 10.02584 | 15739 ft | 440 kts | 78° |
| 2026-05-04 18:08 | 45.64228 | 10.06876 | 15800 ft | 443 kts | 78° |
| 2026-05-04 18:09 | 45.65038 | 10.15642 | 15916 ft | 447 kts | 88° |
| 2026-05-04 18:09 | 45.65059 | 10.24549 | 16114 ft | 449 kts | 91° |
| 2026-05-04 18:10 | 45.64993 | 10.29012 | 16223 ft | 450 kts | 91° |
| 2026-05-04 18:10 | 45.64928 | 10.33491 | 16341 ft | 451 kts | 91° |
| 2026-05-04 18:10 | 45.64877 | 10.37905 | 16457 ft | 451 kts | 91° |
| 2026-05-04 18:10 | 45.64841 | 10.42394 | 16566 ft | 452 kts | 91° |
| 2026-05-04 18:11 | 45.64827 | 10.46884 | 16672 ft | 453 kts | 89° |
| 2026-05-04 18:11 | 45.65077 | 10.51375 | 16776 ft | 454 kts | 82° |
| 2026-05-04 18:11 | 45.65575 | 10.55833 | 16889 ft | 455 kts | 80° |
| 2026-05-04 18:11 | 45.66167 | 10.60281 | 16997 ft | 456 kts | 79° |
| 2026-05-04 18:12 | 45.66809 | 10.64717 | 17108 ft | 456 kts | 78° |
| 2026-05-04 18:12 | 45.67474 | 10.69154 | 17210 ft | 457 kts | 78° |
| 2026-05-04 18:12 | 45.68134 | 10.73547 | 17316 ft | 458 kts | 78° |
| 2026-05-04 18:12 | 45.68797 | 10.77999 | 17423 ft | 459 kts | 78° |
| 2026-05-04 18:13 | 45.69455 | 10.82475 | 17538 ft | 460 kts | 78° |
| 2026-05-04 18:13 | 45.70106 | 10.86953 | 17642 ft | 461 kts | 78° |
| 2026-05-04 18:13 | 45.71398 | 10.95954 | 17857 ft | 462 kts | 78° |
| 2026-05-04 18:14 | 45.72041 | 11.00463 | 17963 ft | 463 kts | 78° |
| 2026-05-04 18:14 | 45.72684 | 11.04987 | 18068 ft | 464 kts | 78° |
| 2026-05-04 18:14 | 45.73326 | 11.09511 | 18179 ft | 465 kts | 78° |
| 2026-05-04 18:15 | 45.74601 | 11.18541 | 18394 ft | 467 kts | 79° |
| 2026-05-04 18:15 | 45.75883 | 11.27668 | 18613 ft | 469 kts | 79° |
| 2026-05-04 18:15 | 45.76523 | 11.32248 | 18728 ft | 469 kts | 79° |
| 2026-05-04 18:16 | 45.77163 | 11.36839 | 18838 ft | 470 kts | 79° |
| 2026-05-04 18:16 | 45.77802 | 11.41436 | 18944 ft | 471 kts | 79° |
| 2026-05-04 18:16 | 45.78431 | 11.45980 | 19056 ft | 472 kts | 79° |
| 2026-05-04 18:17 | 45.79707 | 11.55229 | 19286 ft | 474 kts | 79° |
| 2026-05-04 18:17 | 45.80343 | 11.59868 | 19398 ft | 475 kts | 79° |
| 2026-05-04 18:17 | 45.81614 | 11.69176 | 19629 ft | 477 kts | 79° |
| 2026-05-04 18:18 | 45.82248 | 11.73839 | 19743 ft | 478 kts | 79° |
| 2026-05-04 18:18 | 45.82882 | 11.78522 | 19857 ft | 478 kts | 79° |
| 2026-05-04 18:18 | 45.83514 | 11.83205 | 19966 ft | 480 kts | 79° |
| 2026-05-04 18:18 | 45.84138 | 11.87841 | 20078 ft | 480 kts | 79° |
| 2026-05-04 18:19 | 45.85401 | 11.97269 | 20299 ft | 482 kts | 79° |
| 2026-05-04 18:19 | 45.86031 | 12.01998 | 20409 ft | 483 kts | 79° |
| 2026-05-04 18:19 | 45.86662 | 12.06743 | 20518 ft | 484 kts | 79° |
| 2026-05-04 18:20 | 45.87290 | 12.11487 | 20621 ft | 485 kts | 79° |
| 2026-05-04 18:20 | 45.87878 | 12.16247 | 20719 ft | 486 kts | 83° |
| 2026-05-04 18:20 | 45.88117 | 12.21084 | 20823 ft | 486 kts | 88° |
| 2026-05-04 18:20 | 45.88164 | 12.25886 | 20932 ft | 487 kts | 90° |
| 2026-05-04 18:21 | 45.88114 | 12.30743 | 21028 ft | 488 kts | 91° |
| 2026-05-04 18:21 | 45.88009 | 12.35620 | 21132 ft | 489 kts | 92° |
| 2026-05-04 18:21 | 45.87881 | 12.40490 | 21237 ft | 490 kts | 92° |
| 2026-05-04 18:21 | 45.87746 | 12.45388 | 21334 ft | 491 kts | 92° |
| 2026-05-04 18:22 | 45.87614 | 12.50280 | 21426 ft | 491 kts | 92° |
| 2026-05-04 18:22 | 45.87486 | 12.55187 | 21521 ft | 492 kts | 92° |
| 2026-05-04 18:22 | 45.87362 | 12.60097 | 21613 ft | 493 kts | 92° |
| 2026-05-04 18:22 | 45.87241 | 12.64958 | 21702 ft | 494 kts | 92° |
| 2026-05-04 18:23 | 45.87117 | 12.69879 | 21798 ft | 495 kts | 92° |
| 2026-05-04 18:23 | 45.86992 | 12.74819 | 21889 ft | 496 kts | 92° |
| 2026-05-04 18:23 | 45.86865 | 12.79765 | 21979 ft | 496 kts | 92° |
| 2026-05-04 18:23 | 45.86735 | 12.84717 | 22070 ft | 497 kts | 92° |
| 2026-05-04 18:24 | 45.86602 | 12.89674 | 22153 ft | 498 kts | 92° |
| 2026-05-04 18:24 | 45.86467 | 12.94631 | 22239 ft | 499 kts | 92° |
| 2026-05-04 18:24 | 45.86329 | 12.99605 | 22334 ft | 499 kts | 92° |
| 2026-05-04 18:24 | 45.86189 | 13.04586 | 22417 ft | 500 kts | 92° |
| 2026-05-04 18:25 | 45.86048 | 13.09514 | 22499 ft | 501 kts | 92° |
| 2026-05-04 18:25 | 45.85904 | 13.14504 | 22580 ft | 502 kts | 92° |
| 2026-05-04 18:25 | 45.85756 | 13.19511 | 22661 ft | 502 kts | 92° |
| 2026-05-04 18:25 | 45.85606 | 13.24522 | 22739 ft | 503 kts | 92° |
| 2026-05-04 18:26 | 45.85455 | 13.29528 | 22819 ft | 504 kts | 92° |
| 2026-05-04 18:26 | 45.85301 | 13.34530 | 23206 ft | 497 kts | 92° |
| 2026-05-04 18:26 | 45.85148 | 13.39436 | 23670 ft | 490 kts | 93° |
| 2026-05-04 18:26 | 45.84996 | 13.44254 | 23839 ft | 490 kts | 93° |
| 2026-05-04 18:27 | 45.84839 | 13.49134 | 23955 ft | 490 kts | 93° |
| 2026-05-04 18:27 | 45.84681 | 13.54016 | 24074 ft | 491 kts | 93° |
| 2026-05-04 18:27 | 45.84520 | 13.58908 | 24185 ft | 492 kts | 93° |
| 2026-05-04 18:27 | 45.84356 | 13.63809 | 24290 ft | 492 kts | 93° |
| 2026-05-04 18:28 | 45.84191 | 13.68711 | 24396 ft | 493 kts | 93° |
| 2026-05-04 18:28 | 45.84023 | 13.73627 | 24498 ft | 494 kts | 93° |
| 2026-05-04 18:28 | 45.83852 | 13.78566 | 24603 ft | 495 kts | 93° |
| 2026-05-04 18:28 | 45.83681 | 13.83434 | 24707 ft | 496 kts | 93° |
| 2026-05-04 18:29 | 45.83506 | 13.88377 | 24808 ft | 497 kts | 93° |
| 2026-05-04 18:29 | 45.83328 | 13.93327 | 24908 ft | 498 kts | 93° |
| 2026-05-04 18:29 | 45.83147 | 13.98291 | 25010 ft | 499 kts | 93° |
| 2026-05-04 18:29 | 45.82965 | 14.03264 | 25112 ft | 500 kts | 93° |
| 2026-05-04 18:30 | 45.82592 | 14.13226 | 25308 ft | 501 kts | 93° |
| 2026-05-04 18:30 | 45.82401 | 14.18222 | 25404 ft | 502 kts | 93° |
| 2026-05-04 18:30 | 45.82209 | 14.23216 | 25499 ft | 503 kts | 93° |
| 2026-05-04 18:31 | 45.82016 | 14.28163 | 25595 ft | 504 kts | 93° |
| 2026-05-04 18:31 | 45.81819 | 14.33177 | 25692 ft | 505 kts | 93° |
| 2026-05-04 18:31 | 45.81618 | 14.38216 | 25788 ft | 506 kts | 94° |
| 2026-05-04 18:31 | 45.81415 | 14.43250 | 25881 ft | 506 kts | 94° |
| 2026-05-04 18:32 | 45.81210 | 14.48290 | 25975 ft | 507 kts | 94° |
| 2026-05-04 18:32 | 45.81002 | 14.53339 | 26066 ft | 508 kts | 94° |
| 2026-05-04 18:32 | 45.80793 | 14.58382 | 26159 ft | 509 kts | 94° |
| 2026-05-04 18:32 | 45.80556 | 14.63458 | 26251 ft | 510 kts | 94° |
| 2026-05-04 18:33 | 45.80278 | 14.68538 | 26343 ft | 511 kts | 95° |
| 2026-05-04 18:33 | 45.79988 | 14.73537 | 26434 ft | 511 kts | 95° |
| 2026-05-04 18:33 | 45.79688 | 14.78618 | 26526 ft | 512 kts | 95° |
| 2026-05-04 18:33 | 45.79388 | 14.83708 | 26616 ft | 513 kts | 95° |
| 2026-05-04 18:34 | 45.79090 | 14.88800 | 26704 ft | 514 kts | 95° |
| 2026-05-04 18:34 | 45.78793 | 14.93915 | 26794 ft | 515 kts | 95° |
| 2026-05-04 18:34 | 45.78496 | 14.99025 | 26880 ft | 515 kts | 95° |
| 2026-05-04 18:34 | 45.78198 | 15.04139 | 26973 ft | 516 kts | 95° |
| 2026-05-04 18:35 | 45.77898 | 15.09272 | 27059 ft | 517 kts | 95° |
| 2026-05-04 18:35 | 45.77595 | 15.14398 | 27143 ft | 518 kts | 95° |
| 2026-05-04 18:35 | 45.77293 | 15.19479 | 27228 ft | 519 kts | 95° |
| 2026-05-04 18:35 | 45.76985 | 15.24624 | 27309 ft | 519 kts | 95° |
| 2026-05-04 18:36 | 45.76673 | 15.29783 | 27395 ft | 520 kts | 95° |
| 2026-05-04 18:36 | 45.76358 | 15.34942 | 27479 ft | 521 kts | 95° |
| 2026-05-04 18:36 | 45.76040 | 15.40120 | 27568 ft | 522 kts | 95° |
| 2026-05-04 18:36 | 45.75719 | 15.45300 | 27652 ft | 522 kts | 95° |
| 2026-05-04 18:37 | 45.75396 | 15.50484 | 27736 ft | 523 kts | 95° |
| 2026-05-04 18:37 | 45.75070 | 15.55679 | 27818 ft | 524 kts | 95° |
| 2026-05-04 18:37 | 45.74745 | 15.60809 | 27901 ft | 525 kts | 95° |
| 2026-05-04 18:37 | 45.74414 | 15.66007 | 27979 ft | 525 kts | 95° |
| 2026-05-04 18:38 | 45.74080 | 15.71223 | 28056 ft | 526 kts | 95° |
| 2026-05-04 18:38 | 45.73403 | 15.81668 | 28199 ft | 528 kts | 95° |
| 2026-05-04 18:39 | 45.72714 | 15.92139 | 28332 ft | 529 kts | 96° |
| 2026-05-04 18:39 | 45.72018 | 16.02560 | 28455 ft | 530 kts | 96° |
| 2026-05-04 18:40 | 45.71307 | 16.13072 | 28567 ft | 531 kts | 96° |
| 2026-05-04 18:40 | 45.70585 | 16.23598 | 28667 ft | 532 kts | 96° |
| 2026-05-04 18:41 | 45.69852 | 16.34144 | 28767 ft | 533 kts | 96° |
| 2026-05-04 18:41 | 45.69114 | 16.44626 | 28851 ft | 534 kts | 96° |
| 2026-05-04 18:42 | 45.68359 | 16.55192 | 28935 ft | 535 kts | 96° |
| 2026-05-04 18:42 | 45.67593 | 16.65780 | 29009 ft | 535 kts | 96° |
| 2026-05-04 18:43 | 45.66817 | 16.76379 | 29080 ft | 536 kts | 96° |
| 2026-05-04 18:43 | 45.66029 | 16.86983 | 29144 ft | 537 kts | 96° |
| 2026-05-04 18:44 | 45.65237 | 16.97518 | 29204 ft | 537 kts | 96° |
| 2026-05-04 18:44 | 45.64429 | 17.08139 | 29259 ft | 538 kts | 96° |
| 2026-05-04 18:45 | 45.63610 | 17.18773 | 29311 ft | 538 kts | 96° |
| 2026-05-04 18:45 | 45.62780 | 17.29401 | 29359 ft | 539 kts | 96° |
| 2026-05-04 18:46 | 45.61946 | 17.39970 | 29402 ft | 539 kts | 97° |
| 2026-05-04 18:46 | 45.61095 | 17.50614 | 29444 ft | 539 kts | 97° |
| 2026-05-04 18:47 | 45.60234 | 17.61260 | 29479 ft | 540 kts | 97° |
| 2026-05-04 18:47 | 45.59363 | 17.71912 | 29515 ft | 540 kts | 97° |
| 2026-05-04 18:48 | 45.58481 | 17.82566 | 29547 ft | 540 kts | 97° |
| 2026-05-04 18:48 | 45.57595 | 17.93147 | 29577 ft | 541 kts | 97° |
| 2026-05-04 18:49 | 45.56693 | 18.03800 | 29605 ft | 541 kts | 97° |
| 2026-05-04 18:49 | 45.55779 | 18.14468 | 29633 ft | 541 kts | 97° |
| 2026-05-04 18:50 | 45.54857 | 18.25120 | 29656 ft | 541 kts | 97° |
| 2026-05-04 18:50 | 45.53923 | 18.35786 | 29678 ft | 542 kts | 97° |
| 2026-05-04 18:51 | 45.52987 | 18.46362 | 29697 ft | 542 kts | 97° |
| 2026-05-04 18:51 | 45.52034 | 18.57018 | 29718 ft | 542 kts | 97° |
| 2026-05-04 18:52 | 45.51069 | 18.67681 | 29737 ft | 542 kts | 97° |
| 2026-05-04 18:52 | 45.50096 | 18.78333 | 29753 ft | 542 kts | 97° |
| 2026-05-04 18:53 | 45.49111 | 18.88994 | 29769 ft | 542 kts | 98° |
| 2026-05-04 18:53 | 45.48124 | 18.99575 | 29785 ft | 542 kts | 98° |
| 2026-05-04 18:54 | 45.47119 | 19.10233 | 29801 ft | 543 kts | 98° |
| 2026-05-04 18:54 | 45.46105 | 19.20884 | 29816 ft | 543 kts | 98° |
| 2026-05-04 18:55 | 45.45081 | 19.31527 | 29828 ft | 543 kts | 98° |
| 2026-05-04 18:55 | 45.43532 | 19.47428 | 29847 ft | 543 kts | 98° |
| 2026-05-04 18:56 | 45.42482 | 19.58080 | 29857 ft | 543 kts | 98° |
| 2026-05-04 18:56 | 45.41423 | 19.68716 | 29869 ft | 543 kts | 98° |
| 2026-05-04 18:57 | 45.40354 | 19.79347 | 29878 ft | 543 kts | 98° |
| 2026-05-04 18:57 | 45.39275 | 19.89976 | 29887 ft | 543 kts | 98° |
| 2026-05-04 18:58 | 45.38192 | 20.00546 | 29891 ft | 543 kts | 98° |
| 2026-05-04 18:58 | 45.37644 | 20.05855 | 29660 ft | 542 kts | 98° |
| 2026-05-04 18:58 | 45.37094 | 20.11162 | 29408 ft | 544 kts | 98° |
| 2026-05-04 18:59 | 45.36539 | 20.16494 | 29154 ft | 544 kts | 98° |
| 2026-05-04 18:59 | 45.35982 | 20.21813 | 29013 ft | 544 kts | 98° |
| 2026-05-04 18:59 | 45.34864 | 20.32421 | 29001 ft | 541 kts | 98° |
| 2026-05-04 19:00 | 45.33740 | 20.42997 | 29000 ft | 541 kts | 99° |
| 2026-05-04 19:00 | 45.32614 | 20.53492 | 29000 ft | 541 kts | 99° |
| 2026-05-04 19:01 | 45.31469 | 20.64064 | 29000 ft | 541 kts | 99° |
| 2026-05-04 19:01 | 45.30316 | 20.74624 | 29000 ft | 541 kts | 99° |
| 2026-05-04 19:02 | 45.29152 | 20.85187 | 29000 ft | 541 kts | 99° |
| 2026-05-04 19:02 | 45.27979 | 20.95736 | 29000 ft | 541 kts | 99° |
| 2026-05-04 19:03 | 45.26804 | 21.06219 | 29000 ft | 541 kts | 99° |
| 2026-05-04 19:03 | 45.25611 | 21.16766 | 29000 ft | 541 kts | 99° |
| 2026-05-04 19:04 | 45.24410 | 21.27304 | 29000 ft | 541 kts | 99° |
| 2026-05-04 19:04 | 45.23191 | 21.37841 | 29000 ft | 541 kts | 99° |
| 2026-05-04 19:05 | 45.21945 | 21.48298 | 29000 ft | 541 kts | 100° |
| 2026-05-04 19:05 | 45.20680 | 21.58808 | 29000 ft | 541 kts | 100° |
| 2026-05-04 19:06 | 45.19406 | 21.69333 | 29000 ft | 541 kts | 100° |
| 2026-05-04 19:06 | 45.18127 | 21.79842 | 29000 ft | 541 kts | 100° |
| 2026-05-04 19:07 | 45.16848 | 21.90276 | 29000 ft | 541 kts | 100° |
| 2026-05-04 19:07 | 45.15550 | 22.00773 | 29000 ft | 541 kts | 100° |
| 2026-05-04 19:08 | 45.14241 | 22.11279 | 29000 ft | 541 kts | 100° |
| 2026-05-04 19:08 | 45.12924 | 22.21767 | 29000 ft | 541 kts | 100° |
| 2026-05-04 19:09 | 45.11597 | 22.32252 | 29000 ft | 541 kts | 100° |
| 2026-05-04 19:09 | 45.10270 | 22.42664 | 29000 ft | 541 kts | 100° |
| 2026-05-04 19:10 | 45.08924 | 22.53139 | 29000 ft | 541 kts | 101° |
| 2026-05-04 19:10 | 45.07568 | 22.63612 | 29000 ft | 541 kts | 101° |
| 2026-05-04 19:11 | 45.06202 | 22.74081 | 29000 ft | 541 kts | 101° |
| 2026-05-04 19:11 | 45.04837 | 22.84471 | 29001 ft | 541 kts | 101° |
| 2026-05-04 19:12 | 45.02757 | 23.00155 | 29000 ft | 541 kts | 101° |
| 2026-05-04 19:13 | 45.01358 | 23.10604 | 29000 ft | 541 kts | 101° |
| 2026-05-04 19:13 | 44.99950 | 23.21048 | 29000 ft | 541 kts | 101° |
| 2026-05-04 19:14 | 44.98532 | 23.31488 | 29000 ft | 541 kts | 101° |
| 2026-05-04 19:14 | 44.97104 | 23.41924 | 29000 ft | 541 kts | 101° |
| 2026-05-04 19:15 | 44.95678 | 23.52281 | 29000 ft | 541 kts | 101° |
| 2026-05-04 19:15 | 44.94232 | 23.62702 | 29000 ft | 541 kts | 101° |
| 2026-05-04 19:16 | 44.92777 | 23.73117 | 29000 ft | 541 kts | 101° |
| 2026-05-04 19:16 | 44.91311 | 23.83534 | 29000 ft | 541 kts | 101° |
| 2026-05-04 19:17 | 44.89838 | 23.93934 | 29000 ft | 541 kts | 101° |
| 2026-05-04 19:17 | 44.88363 | 24.04272 | 29000 ft | 541 kts | 102° |
| 2026-05-04 19:18 | 44.86870 | 24.14664 | 29000 ft | 541 kts | 102° |
| 2026-05-04 19:18 | 44.85367 | 24.25060 | 29000 ft | 541 kts | 102° |
| 2026-05-04 19:19 | 44.83854 | 24.35448 | 29000 ft | 541 kts | 102° |
| 2026-05-04 19:19 | 44.82343 | 24.45757 | 29000 ft | 541 kts | 102° |
| 2026-05-04 19:20 | 44.80813 | 24.56130 | 29000 ft | 541 kts | 102° |
| 2026-05-04 19:20 | 44.79273 | 24.66497 | 29000 ft | 541 kts | 102° |
| 2026-05-04 19:21 | 44.77724 | 24.76853 | 29000 ft | 541 kts | 102° |
| 2026-05-04 19:21 | 44.76045 | 24.87173 | 29000 ft | 541 kts | 107° |
| 2026-05-04 19:22 | 44.73740 | 24.97160 | 29000 ft | 541 kts | 109° |
| 2026-05-04 19:22 | 44.71253 | 25.07145 | 29000 ft | 541 kts | 110° |
| 2026-05-04 19:23 | 44.68733 | 25.17099 | 29000 ft | 541 kts | 110° |
| 2026-05-04 19:23 | 44.66213 | 25.27060 | 29000 ft | 541 kts | 110° |
| 2026-05-04 19:24 | 44.63695 | 25.37011 | 29000 ft | 541 kts | 110° |
| 2026-05-04 19:24 | 44.61191 | 25.46876 | 29000 ft | 541 kts | 110° |
| 2026-05-04 19:25 | 44.58658 | 25.56814 | 29000 ft | 541 kts | 110° |
| 2026-05-04 19:25 | 44.56115 | 25.66744 | 29000 ft | 541 kts | 110° |
| 2026-05-04 19:26 | 44.53583 | 25.76588 | 29000 ft | 541 kts | 110° |
| 2026-05-04 19:26 | 44.51025 | 25.86495 | 29000 ft | 541 kts | 110° |
| 2026-05-04 19:27 | 44.48457 | 25.96398 | 29000 ft | 541 kts | 110° |
| 2026-05-04 19:27 | 44.45881 | 26.06290 | 29000 ft | 541 kts | 110° |
| 2026-05-04 19:28 | 44.43298 | 26.16166 | 29000 ft | 541 kts | 110° |
| 2026-05-04 19:28 | 44.40706 | 26.26036 | 29000 ft | 541 kts | 110° |
| 2026-05-04 19:29 | 44.38120 | 26.35841 | 29000 ft | 541 kts | 110° |
| 2026-05-04 19:29 | 44.35511 | 26.45694 | 29000 ft | 541 kts | 110° |
| 2026-05-04 19:30 | 44.32893 | 26.55539 | 29000 ft | 541 kts | 110° |
| 2026-05-04 19:30 | 44.30270 | 26.65363 | 29000 ft | 541 kts | 110° |
| 2026-05-04 19:31 | 44.27652 | 26.75127 | 29000 ft | 541 kts | 111° |
| 2026-05-04 19:31 | 44.25009 | 26.84949 | 29000 ft | 540 kts | 111° |
| 2026-05-04 19:32 | 44.22356 | 26.94762 | 29000 ft | 541 kts | 111° |
| 2026-05-04 19:32 | 44.19699 | 27.04553 | 29000 ft | 541 kts | 111° |
| 2026-05-04 19:33 | 44.17047 | 27.14285 | 29000 ft | 541 kts | 111° |
| 2026-05-04 19:33 | 44.14369 | 27.24075 | 29000 ft | 541 kts | 111° |
| 2026-05-04 19:34 | 44.11685 | 27.33848 | 29000 ft | 541 kts | 111° |
| 2026-05-04 19:34 | 44.08992 | 27.43612 | 29000 ft | 541 kts | 111° |
| 2026-05-04 19:35 | 44.06288 | 27.53376 | 29000 ft | 541 kts | 111° |
| 2026-05-04 19:35 | 44.03597 | 27.63058 | 29000 ft | 541 kts | 111° |
| 2026-05-04 19:36 | 44.00879 | 27.72798 | 29000 ft | 541 kts | 111° |
| 2026-05-04 19:36 | 43.98154 | 27.82522 | 29000 ft | 541 kts | 111° |
| 2026-05-04 19:37 | 43.95419 | 27.92244 | 29000 ft | 541 kts | 111° |
| 2026-05-04 19:37 | 43.92693 | 28.01897 | 29000 ft | 541 kts | 111° |
| 2026-05-04 19:38 | 43.89945 | 28.11592 | 29000 ft | 541 kts | 111° |
| 2026-05-04 19:38 | 43.87182 | 28.21298 | 29000 ft | 541 kts | 112° |
| 2026-05-04 19:39 | 43.84417 | 28.30976 | 29000 ft | 541 kts | 112° |
| 2026-05-04 19:39 | 43.81659 | 28.40591 | 29000 ft | 541 kts | 112° |
| 2026-05-04 19:40 | 43.78666 | 28.50125 | 29000 ft | 540 kts | 119° |
| 2026-05-04 19:40 | 43.74749 | 28.58975 | 29001 ft | 539 kts | 123° |
| 2026-05-04 19:41 | 43.70568 | 28.67576 | 29000 ft | 540 kts | 124° |
| 2026-05-04 19:41 | 43.66416 | 28.75979 | 29008 ft | 519 kts | 124° |
| 2026-05-04 19:42 | 43.62428 | 28.84084 | 29003 ft | 507 kts | 124° |
| 2026-05-04 19:42 | 43.58467 | 28.92151 | 29000 ft | 508 kts | 124° |
| 2026-05-04 19:43 | 43.54511 | 29.00201 | 28999 ft | 507 kts | 124° |
| 2026-05-04 19:43 | 43.50601 | 29.08137 | 29003 ft | 496 kts | 124° |
| 2026-05-04 19:44 | 43.46727 | 29.15976 | 29000 ft | 495 kts | 124° |
| 2026-05-04 19:44 | 43.42848 | 29.23804 | 29000 ft | 495 kts | 124° |
| 2026-05-04 19:45 | 43.38993 | 29.31561 | 29000 ft | 495 kts | 124° |
| 2026-05-04 19:45 | 43.35105 | 29.39366 | 29000 ft | 495 kts | 124° |
| 2026-05-04 19:46 | 43.31212 | 29.47159 | 29000 ft | 495 kts | 124° |
| 2026-05-04 19:46 | 43.27312 | 29.54946 | 29000 ft | 495 kts | 125° |
| 2026-05-04 19:47 | 43.23408 | 29.62721 | 29000 ft | 495 kts | 125° |
| 2026-05-04 19:47 | 43.19499 | 29.70485 | 29000 ft | 495 kts | 125° |
| 2026-05-04 19:48 | 43.15612 | 29.78186 | 29000 ft | 495 kts | 125° |
| 2026-05-04 19:48 | 43.11696 | 29.85924 | 29000 ft | 495 kts | 125° |
| 2026-05-04 19:49 | 43.07769 | 29.93662 | 29000 ft | 495 kts | 125° |
| 2026-05-04 19:49 | 43.03839 | 30.01386 | 29000 ft | 495 kts | 125° |
| 2026-05-04 19:50 | 42.99934 | 30.09043 | 29000 ft | 495 kts | 125° |
| 2026-05-04 19:50 | 42.95990 | 30.16754 | 29000 ft | 495 kts | 125° |
| 2026-05-04 19:51 | 42.92047 | 30.24446 | 29000 ft | 495 kts | 125° |
| 2026-05-04 19:51 | 42.88099 | 30.32125 | 29000 ft | 495 kts | 125° |
| 2026-05-04 19:52 | 42.84142 | 30.39804 | 29000 ft | 495 kts | 125° |
| 2026-05-04 19:52 | 42.80183 | 30.47466 | 29000 ft | 495 kts | 125° |
| 2026-05-04 19:53 | 42.76244 | 30.55074 | 29000 ft | 495 kts | 125° |
| 2026-05-04 19:53 | 42.73221 | 30.63450 | 29004 ft | 495 kts | 108° |
| 2026-05-04 19:54 | 42.71299 | 30.72408 | 29000 ft | 494 kts | 105° |
| 2026-05-04 19:54 | 42.69568 | 30.81460 | 29000 ft | 496 kts | 104° |
| 2026-05-04 19:55 | 42.67844 | 30.90468 | 29000 ft | 496 kts | 105° |
| 2026-05-04 19:55 | 42.66073 | 30.99519 | 29000 ft | 496 kts | 105° |
| 2026-05-04 19:56 | 42.64280 | 31.08556 | 29000 ft | 496 kts | 105° |
| 2026-05-04 19:56 | 42.62477 | 31.17593 | 29000 ft | 496 kts | 105° |
| 2026-05-04 19:57 | 42.60680 | 31.26562 | 29000 ft | 496 kts | 105° |
| 2026-05-04 19:57 | 42.58865 | 31.35587 | 29000 ft | 496 kts | 105° |
| 2026-05-04 19:57 | 42.57957 | 31.40088 | 29122 ft | 493 kts | 105° |
| 2026-05-04 19:58 | 42.57052 | 31.44563 | 29119 ft | 493 kts | 105° |
| 2026-05-04 19:58 | 42.55225 | 31.53567 | 28995 ft | 496 kts | 105° |
| 2026-05-04 19:59 | 42.53388 | 31.62581 | 29000 ft | 496 kts | 105° |
| 2026-05-04 19:59 | 42.51552 | 31.71551 | 28999 ft | 500 kts | 105° |
| 2026-05-04 20:00 | 42.49671 | 31.80700 | 28998 ft | 508 kts | 106° |
| 2026-05-04 20:00 | 42.47756 | 31.89969 | 28998 ft | 514 kts | 106° |
| 2026-05-04 20:01 | 42.46140 | 31.97762 | 28998 ft | 519 kts | 106° |
| 2026-05-04 20:01 | 42.44174 | 32.07203 | 28999 ft | 522 kts | 106° |
| 2026-05-04 20:02 | 42.41876 | 32.18183 | 29000 ft | 522 kts | 106° |
| 2026-05-04 20:02 | 42.40228 | 32.26023 | 29000 ft | 521 kts | 106° |
| 2026-05-04 20:03 | 42.38236 | 32.35457 | 29000 ft | 521 kts | 106° |
| 2026-05-04 20:03 | 42.36237 | 32.44882 | 29000 ft | 522 kts | 106° |
| 2026-05-04 20:04 | 42.33910 | 32.55831 | 28999 ft | 521 kts | 105° |
| 2026-05-04 20:04 | 42.32551 | 32.65464 | 29000 ft | 522 kts | 99° |
| 2026-05-04 20:05 | 42.31618 | 32.73515 | 29000 ft | 522 kts | 99° |
| 2026-05-04 20:05 | 42.30540 | 32.83202 | 29000 ft | 522 kts | 99° |
| 2026-05-04 20:06 | 42.29447 | 32.92896 | 29000 ft | 522 kts | 99° |
| 2026-05-04 20:06 | 42.28335 | 33.02577 | 29000 ft | 522 kts | 99° |
| 2026-05-04 20:07 | 42.27218 | 33.12186 | 29000 ft | 522 kts | 99° |
| 2026-05-04 20:07 | 42.26084 | 33.21862 | 29000 ft | 522 kts | 99° |
| 2026-05-04 20:08 | 42.24942 | 33.31535 | 29000 ft | 522 kts | 99° |
| 2026-05-04 20:08 | 42.23793 | 33.41201 | 29000 ft | 522 kts | 99° |
| 2026-05-04 20:09 | 42.22643 | 33.50801 | 29000 ft | 522 kts | 99° |
| 2026-05-04 20:09 | 42.21478 | 33.60463 | 29000 ft | 522 kts | 99° |
| 2026-05-04 20:10 | 42.20304 | 33.70117 | 29000 ft | 522 kts | 99° |
| 2026-05-04 20:10 | 42.19123 | 33.79768 | 29000 ft | 522 kts | 99° |
| 2026-05-04 20:11 | 42.17947 | 33.89355 | 29000 ft | 522 kts | 99° |
| 2026-05-04 20:11 | 42.16748 | 33.99000 | 29000 ft | 522 kts | 99° |
| 2026-05-04 20:12 | 42.15541 | 34.08643 | 29000 ft | 522 kts | 99° |
| 2026-05-04 20:12 | 42.14327 | 34.18283 | 29000 ft | 522 kts | 100° |
| 2026-05-04 20:13 | 42.13114 | 34.27853 | 29000 ft | 522 kts | 100° |
| 2026-05-04 20:13 | 42.11886 | 34.37481 | 29000 ft | 522 kts | 100° |
| 2026-05-04 20:14 | 42.10647 | 34.47105 | 29000 ft | 522 kts | 100° |
| 2026-05-04 20:14 | 42.09326 | 34.56714 | 29000 ft | 522 kts | 101° |
| 2026-05-04 20:15 | 42.07981 | 34.66245 | 29000 ft | 522 kts | 101° |
| 2026-05-04 20:15 | 42.06631 | 34.75837 | 29000 ft | 522 kts | 101° |
| 2026-05-04 20:16 | 42.05282 | 34.85425 | 29000 ft | 522 kts | 101° |
| 2026-05-04 20:16 | 42.03964 | 34.95018 | 29000 ft | 522 kts | 100° |
| 2026-05-04 20:17 | 42.02693 | 35.04626 | 29000 ft | 522 kts | 100° |
| 2026-05-04 20:17 | 42.01951 | 35.14267 | 29000 ft | 522 kts | 95° |
| 2026-05-04 20:18 | 42.01417 | 35.24001 | 29000 ft | 522 kts | 94° |
| 2026-05-04 20:18 | 42.00911 | 35.33734 | 29000 ft | 522 kts | 94° |
| 2026-05-04 20:19 | 42.00394 | 35.43402 | 29000 ft | 522 kts | 94° |
| 2026-05-04 20:19 | 41.99857 | 35.53132 | 29000 ft | 522 kts | 94° |
| 2026-05-04 20:20 | 41.99310 | 35.62856 | 29000 ft | 522 kts | 95° |
| 2026-05-04 20:20 | 41.98753 | 35.72589 | 29000 ft | 522 kts | 95° |
| 2026-05-04 20:21 | 41.98189 | 35.82310 | 29000 ft | 522 kts | 95° |
| 2026-05-04 20:21 | 41.97332 | 35.96829 | 29000 ft | 522 kts | 95° |
| 2026-05-04 20:22 | 41.96748 | 36.06550 | 29000 ft | 522 kts | 95° |
| 2026-05-04 20:22 | 41.96155 | 36.16269 | 29000 ft | 522 kts | 95° |
| 2026-05-04 20:23 | 41.95554 | 36.25984 | 29000 ft | 522 kts | 95° |
| 2026-05-04 20:23 | 41.94949 | 36.35635 | 29000 ft | 522 kts | 95° |
| 2026-05-04 20:24 | 41.94333 | 36.45345 | 29000 ft | 522 kts | 95° |
| 2026-05-04 20:24 | 41.93707 | 36.55059 | 29000 ft | 522 kts | 95° |
| 2026-05-04 20:25 | 41.93074 | 36.64769 | 29000 ft | 522 kts | 95° |
| 2026-05-04 20:25 | 41.92437 | 36.74407 | 29000 ft | 522 kts | 95° |
| 2026-05-04 20:26 | 41.91787 | 36.84116 | 29000 ft | 522 kts | 95° |
| 2026-05-04 20:26 | 41.91129 | 36.93819 | 29000 ft | 522 kts | 95° |
| 2026-05-04 20:27 | 41.90249 | 37.03476 | 29000 ft | 522 kts | 103° |
| 2026-05-04 20:27 | 41.87911 | 37.12603 | 29000 ft | 521 kts | 112° |
| 2026-05-04 20:28 | 41.85119 | 37.21572 | 29000 ft | 521 kts | 113° |
| 2026-05-04 20:28 | 41.82250 | 37.30501 | 29000 ft | 521 kts | 113° |
| 2026-05-04 20:29 | 41.79395 | 37.39427 | 29000 ft | 521 kts | 113° |
| 2026-05-04 20:29 | 41.76570 | 37.48301 | 29000 ft | 521 kts | 113° |
| 2026-05-04 20:30 | 41.73727 | 37.57226 | 29000 ft | 521 kts | 113° |
| 2026-05-04 20:30 | 41.70877 | 37.66146 | 29000 ft | 521 kts | 113° |
| 2026-05-04 20:31 | 41.68025 | 37.75059 | 29000 ft | 521 kts | 113° |
| 2026-05-04 20:31 | 41.65178 | 37.83904 | 29000 ft | 521 kts | 114° |
| 2026-05-04 20:32 | 41.62306 | 37.92797 | 29000 ft | 521 kts | 114° |
| 2026-05-04 20:32 | 41.59427 | 38.01686 | 29000 ft | 521 kts | 114° |
| 2026-05-04 20:33 | 41.56544 | 38.10565 | 29000 ft | 521 kts | 114° |
| 2026-05-04 20:33 | 41.53652 | 38.19438 | 29000 ft | 521 kts | 114° |
| 2026-05-04 20:34 | 41.50774 | 38.28243 | 29000 ft | 521 kts | 114° |
| 2026-05-04 20:34 | 41.47868 | 38.37104 | 29000 ft | 521 kts | 114° |
| 2026-05-04 20:35 | 41.44958 | 38.45950 | 29000 ft | 521 kts | 114° |
| 2026-05-04 20:35 | 41.42039 | 38.54790 | 29000 ft | 521 kts | 114° |
| 2026-05-04 20:36 | 41.39134 | 38.63564 | 29000 ft | 521 kts | 114° |
| 2026-05-04 20:36 | 41.36203 | 38.72387 | 29000 ft | 521 kts | 114° |
| 2026-05-04 20:37 | 41.33268 | 38.81204 | 29000 ft | 521 kts | 114° |
| 2026-05-04 20:37 | 41.30391 | 38.89984 | 29000 ft | 521 kts | 114° |
| 2026-05-04 20:38 | 41.27505 | 38.98827 | 29000 ft | 521 kts | 114° |
| 2026-05-04 20:38 | 41.24610 | 39.07652 | 29000 ft | 521 kts | 114° |
| 2026-05-04 20:39 | 41.21702 | 39.16470 | 29000 ft | 521 kts | 114° |
| 2026-05-04 20:39 | 41.18740 | 39.25186 | 29000 ft | 521 kts | 115° |
| 2026-05-04 20:40 | 41.15666 | 39.33894 | 29000 ft | 521 kts | 115° |
| 2026-05-04 20:40 | 41.12589 | 39.42599 | 29000 ft | 521 kts | 115° |
| 2026-05-04 20:41 | 41.09522 | 39.51303 | 29000 ft | 521 kts | 115° |
| 2026-05-04 20:41 | 41.06476 | 39.59945 | 29000 ft | 521 kts | 115° |
| 2026-05-04 20:42 | 41.03403 | 39.68639 | 29000 ft | 521 kts | 115° |
| 2026-05-04 20:42 | 41.00507 | 39.77432 | 29000 ft | 521 kts | 108° |
| 2026-05-04 20:43 | 40.99342 | 39.86874 | 29000 ft | 521 kts | 94° |
| 2026-05-04 20:43 | 40.99034 | 39.96402 | 29000 ft | 522 kts | 92° |
| 2026-05-04 20:44 | 40.98856 | 40.06010 | 29000 ft | 522 kts | 91° |
| 2026-05-04 20:44 | 40.98653 | 40.15610 | 29000 ft | 522 kts | 92° |
| 2026-05-04 20:45 | 40.98415 | 40.25213 | 29000 ft | 522 kts | 92° |
| 2026-05-04 20:45 | 40.98152 | 40.34749 | 29001 ft | 522 kts | 92° |
| 2026-05-04 20:46 | 40.97875 | 40.44349 | 29000 ft | 522 kts | 92° |
| 2026-05-04 20:46 | 40.97593 | 40.53949 | 29000 ft | 522 kts | 92° |
| 2026-05-04 20:47 | 40.97306 | 40.63541 | 29000 ft | 522 kts | 92° |
| 2026-05-04 20:47 | 40.97010 | 40.73142 | 28999 ft | 522 kts | 92° |
| 2026-05-04 20:48 | 40.96710 | 40.82673 | 29000 ft | 522 kts | 92° |
| 2026-05-04 20:48 | 40.96402 | 40.92267 | 29000 ft | 522 kts | 92° |
| 2026-05-04 20:49 | 40.96084 | 41.01859 | 29000 ft | 522 kts | 92° |
| 2026-05-04 20:49 | 40.95754 | 41.11454 | 29001 ft | 522 kts | 93° |
| 2026-05-04 20:50 | 40.95419 | 41.20977 | 29001 ft | 522 kts | 93° |
| 2026-05-04 20:50 | 40.95076 | 41.30567 | 28999 ft | 522 kts | 93° |
| 2026-05-04 20:51 | 40.94725 | 41.40159 | 29000 ft | 522 kts | 93° |
| 2026-05-04 20:51 | 40.94366 | 41.49748 | 29000 ft | 522 kts | 93° |
| 2026-05-04 20:52 | 40.94001 | 41.59272 | 29000 ft | 522 kts | 93° |
| 2026-05-04 20:52 | 40.93627 | 41.68855 | 29000 ft | 522 kts | 93° |
| 2026-05-04 20:53 | 40.93244 | 41.78442 | 29001 ft | 522 kts | 93° |
| 2026-05-04 20:53 | 40.92854 | 41.88023 | 28999 ft | 522 kts | 93° |
| 2026-05-04 20:54 | 40.92458 | 41.97542 | 29000 ft | 522 kts | 93° |
| 2026-05-04 20:54 | 40.92052 | 42.07122 | 29000 ft | 522 kts | 93° |
| 2026-05-04 20:55 | 40.91637 | 42.16707 | 28999 ft | 522 kts | 94° |
| 2026-05-04 20:55 | 40.91215 | 42.26286 | 29000 ft | 522 kts | 94° |
| 2026-05-04 20:56 | 40.90787 | 42.35797 | 29000 ft | 522 kts | 94° |
| 2026-05-04 20:56 | 40.90349 | 42.45374 | 29000 ft | 522 kts | 94° |
| 2026-05-04 20:57 | 40.89903 | 42.54952 | 29000 ft | 522 kts | 94° |
| 2026-05-04 20:57 | 40.89449 | 42.64523 | 29000 ft | 522 kts | 94° |
| 2026-05-04 20:58 | 40.88990 | 42.74033 | 29000 ft | 522 kts | 94° |
| 2026-05-04 20:58 | 40.88521 | 42.83602 | 29000 ft | 522 kts | 94° |
| 2026-05-04 20:59 | 40.88043 | 42.93170 | 29000 ft | 522 kts | 94° |
| 2026-05-04 20:59 | 40.87557 | 43.02739 | 29000 ft | 522 kts | 94° |
| 2026-05-04 21:00 | 40.87064 | 43.12309 | 29000 ft | 522 kts | 94° |
| 2026-05-04 21:00 | 40.86566 | 43.21808 | 29000 ft | 522 kts | 94° |
| 2026-05-04 21:01 | 40.86057 | 43.31367 | 29000 ft | 522 kts | 94° |
| 2026-05-04 21:01 | 40.85540 | 43.40932 | 29000 ft | 522 kts | 94° |
| 2026-05-04 21:02 | 40.85015 | 43.50493 | 29000 ft | 522 kts | 94° |
| 2026-05-04 21:02 | 40.84486 | 43.59985 | 29000 ft | 522 kts | 94° |
| 2026-05-04 21:03 | 40.83946 | 43.69545 | 29000 ft | 522 kts | 94° |
| 2026-05-04 21:03 | 40.83569 | 43.79115 | 29000 ft | 522 kts | 92° |
| 2026-05-04 21:04 | 40.83312 | 43.88692 | 29000 ft | 522 kts | 92° |
| 2026-05-04 21:04 | 40.83029 | 43.98206 | 29000 ft | 522 kts | 92° |
| 2026-05-04 21:05 | 40.82708 | 44.07778 | 29000 ft | 522 kts | 93° |
| 2026-05-04 21:05 | 40.82368 | 44.17357 | 29000 ft | 522 kts | 93° |
| 2026-05-04 21:06 | 40.82021 | 44.26923 | 29000 ft | 522 kts | 93° |
| 2026-05-04 21:06 | 40.81670 | 44.36429 | 29000 ft | 522 kts | 93° |
| 2026-05-04 21:07 | 40.81309 | 44.45998 | 29000 ft | 522 kts | 93° |
| 2026-05-04 21:07 | 40.80941 | 44.55565 | 29000 ft | 522 kts | 93° |
| 2026-05-04 21:08 | 40.80566 | 44.65133 | 29000 ft | 522 kts | 93° |
| 2026-05-04 21:08 | 40.80183 | 44.74633 | 29000 ft | 522 kts | 93° |
| 2026-05-04 21:09 | 40.79790 | 44.84201 | 29000 ft | 522 kts | 93° |
| 2026-05-04 21:09 | 40.79390 | 44.93762 | 29001 ft | 522 kts | 93° |
| 2026-05-04 21:10 | 40.78982 | 45.03327 | 28999 ft | 522 kts | 93° |
| 2026-05-04 21:10 | 40.78570 | 45.12822 | 29000 ft | 522 kts | 94° |
| 2026-05-04 21:11 | 40.78146 | 45.22380 | 29000 ft | 522 kts | 94° |
| 2026-05-04 21:11 | 40.77714 | 45.31940 | 29000 ft | 522 kts | 94° |
| 2026-05-04 21:12 | 40.77274 | 45.41497 | 29000 ft | 522 kts | 94° |
| 2026-05-04 21:12 | 40.77097 | 45.51056 | 29001 ft | 522 kts | 85° |
| 2026-05-04 21:13 | 40.77892 | 45.60511 | 29000 ft | 522 kts | 83° |
| 2026-05-04 21:13 | 40.78879 | 45.70007 | 29000 ft | 522 kts | 82° |
| 2026-05-04 21:14 | 40.79885 | 45.79500 | 28999 ft | 522 kts | 82° |
| 2026-05-04 21:14 | 40.80867 | 45.88996 | 29000 ft | 522 kts | 82° |
| 2026-05-04 21:15 | 40.81821 | 45.98433 | 29000 ft | 522 kts | 83° |
| 2026-05-04 21:15 | 40.82771 | 46.07943 | 29000 ft | 522 kts | 83° |
| 2026-05-04 21:16 | 40.83714 | 46.17449 | 29000 ft | 522 kts | 83° |
| 2026-05-04 21:16 | 40.84649 | 46.26961 | 29000 ft | 522 kts | 83° |
| 2026-05-04 21:17 | 40.85571 | 46.36413 | 29000 ft | 522 kts | 83° |
| 2026-05-04 21:17 | 40.86491 | 46.45925 | 29000 ft | 522 kts | 83° |
| 2026-05-04 21:18 | 40.87404 | 46.55446 | 29000 ft | 522 kts | 83° |
| 2026-05-04 21:18 | 40.88309 | 46.64970 | 29000 ft | 522 kts | 83° |
| 2026-05-04 21:19 | 40.89199 | 46.74426 | 29000 ft | 522 kts | 83° |
| 2026-05-04 21:19 | 40.90309 | 46.83907 | 29002 ft | 522 kts | 78° |
| 2026-05-04 21:20 | 40.91954 | 46.93264 | 29000 ft | 522 kts | 76° |
| 2026-05-04 21:20 | 40.93692 | 47.02594 | 29000 ft | 522 kts | 76° |
| 2026-05-04 21:21 | 40.95420 | 47.11862 | 29000 ft | 522 kts | 76° |
| 2026-05-04 21:21 | 40.97142 | 47.21198 | 29000 ft | 522 kts | 76° |
| 2026-05-04 21:22 | 40.98849 | 47.30539 | 29000 ft | 522 kts | 76° |
| 2026-05-04 21:22 | 41.00548 | 47.39891 | 29000 ft | 522 kts | 77° |
| 2026-05-04 21:23 | 41.02229 | 47.49185 | 29000 ft | 522 kts | 77° |
| 2026-05-04 21:23 | 41.03913 | 47.58547 | 29000 ft | 522 kts | 77° |
| 2026-05-04 21:24 | 41.05590 | 47.67911 | 29000 ft | 522 kts | 77° |
| 2026-05-04 21:24 | 41.07259 | 47.77280 | 29000 ft | 522 kts | 77° |
| 2026-05-04 21:25 | 41.08909 | 47.86585 | 29000 ft | 522 kts | 77° |
| 2026-05-04 21:25 | 41.10579 | 47.95958 | 28998 ft | 522 kts | 75° |
| 2026-05-04 21:26 | 41.12886 | 48.05095 | 28999 ft | 523 kts | 70° |
| 2026-05-04 21:26 | 41.15385 | 48.14146 | 29000 ft | 523 kts | 70° |
| 2026-05-04 21:27 | 41.17898 | 48.23128 | 29000 ft | 523 kts | 70° |
| 2026-05-04 21:27 | 41.20413 | 48.32177 | 29000 ft | 523 kts | 70° |
| 2026-05-04 21:28 | 41.22913 | 48.41242 | 29000 ft | 523 kts | 70° |
| 2026-05-04 21:28 | 41.25403 | 48.50317 | 29000 ft | 523 kts | 70° |
| 2026-05-04 21:29 | 41.27867 | 48.59333 | 28999 ft | 523 kts | 70° |
| 2026-05-04 21:29 | 41.30343 | 48.68421 | 29000 ft | 523 kts | 70° |
| 2026-05-04 21:30 | 41.32811 | 48.77514 | 29000 ft | 523 kts | 70° |
| 2026-05-04 21:30 | 41.35272 | 48.86612 | 29000 ft | 523 kts | 70° |
| 2026-05-04 21:31 | 41.38937 | 49.00210 | 29000 ft | 523 kts | 70° |
| 2026-05-04 21:32 | 41.41376 | 49.09326 | 29000 ft | 523 kts | 70° |
| 2026-05-04 21:32 | 41.43810 | 49.18456 | 29000 ft | 523 kts | 70° |
| 2026-05-04 21:33 | 41.46220 | 49.27524 | 29000 ft | 523 kts | 70° |
| 2026-05-04 21:33 | 41.48640 | 49.36661 | 29000 ft | 523 kts | 71° |
| 2026-05-04 21:34 | 41.51053 | 49.45804 | 29000 ft | 523 kts | 71° |
| 2026-05-04 21:34 | 41.53459 | 49.54956 | 29000 ft | 523 kts | 71° |
| 2026-05-04 21:35 | 41.55841 | 49.64051 | 29000 ft | 523 kts | 71° |
| 2026-05-04 21:35 | 41.58233 | 49.73218 | 29000 ft | 523 kts | 71° |
| 2026-05-04 21:36 | 41.60617 | 49.82388 | 29000 ft | 523 kts | 71° |
| 2026-05-04 21:36 | 41.62994 | 49.91566 | 29000 ft | 523 kts | 71° |
| 2026-05-04 21:37 | 41.65347 | 50.00689 | 29000 ft | 523 kts | 71° |
| 2026-05-04 21:37 | 41.67709 | 50.09879 | 29000 ft | 523 kts | 71° |
| 2026-05-04 21:38 | 41.70064 | 50.19080 | 29000 ft | 523 kts | 71° |
| 2026-05-04 21:38 | 41.72412 | 50.28286 | 29000 ft | 523 kts | 71° |
| 2026-05-04 21:39 | 41.74736 | 50.37432 | 29000 ft | 523 kts | 71° |
| 2026-05-04 21:39 | 41.77069 | 50.46653 | 29000 ft | 523 kts | 71° |
| 2026-05-04 21:40 | 41.79394 | 50.55876 | 29000 ft | 523 kts | 71° |
| 2026-05-04 21:40 | 41.81712 | 50.65110 | 29000 ft | 523 kts | 71° |
| 2026-05-04 21:41 | 41.84022 | 50.74344 | 29000 ft | 523 kts | 71° |
| 2026-05-04 21:41 | 41.86310 | 50.83528 | 29000 ft | 523 kts | 71° |
| 2026-05-04 21:42 | 41.88606 | 50.92780 | 29000 ft | 523 kts | 72° |
| 2026-05-04 21:42 | 41.90894 | 51.02038 | 29000 ft | 523 kts | 72° |
| 2026-05-04 21:43 | 41.93175 | 51.11303 | 29000 ft | 523 kts | 72° |
| 2026-05-04 21:43 | 41.95434 | 51.20512 | 29000 ft | 523 kts | 72° |
| 2026-05-04 21:44 | 41.97699 | 51.29789 | 29000 ft | 523 kts | 72° |
| 2026-05-04 21:44 | 41.99957 | 51.39071 | 29000 ft | 523 kts | 72° |
| 2026-05-04 21:45 | 42.02755 | 51.48067 | 29003 ft | 523 kts | 60° |
| 2026-05-04 21:45 | 42.06540 | 51.56335 | 29000 ft | 523 kts | 57° |
| 2026-05-04 21:46 | 42.10524 | 51.64524 | 29000 ft | 523 kts | 57° |
| 2026-05-04 21:46 | 42.14522 | 51.72709 | 29000 ft | 523 kts | 57° |
| 2026-05-04 21:47 | 42.18494 | 51.80918 | 29000 ft | 523 kts | 57° |
| 2026-05-04 21:47 | 42.22422 | 51.89091 | 29000 ft | 523 kts | 57° |
| 2026-05-04 21:48 | 42.26369 | 51.97333 | 29000 ft | 523 kts | 57° |
| 2026-05-04 21:48 | 42.30309 | 52.05584 | 29000 ft | 523 kts | 57° |
| 2026-05-04 21:49 | 42.34246 | 52.13848 | 29000 ft | 523 kts | 57° |
| 2026-05-04 21:49 | 42.38148 | 52.22060 | 29000 ft | 523 kts | 57° |
| 2026-05-04 21:50 | 42.42072 | 52.30342 | 29000 ft | 523 kts | 57° |
| 2026-05-04 21:50 | 42.45991 | 52.38638 | 29000 ft | 523 kts | 57° |
| 2026-05-04 21:51 | 42.49904 | 52.46942 | 29000 ft | 523 kts | 57° |
| 2026-05-04 21:51 | 42.53783 | 52.55198 | 29000 ft | 523 kts | 57° |
| 2026-05-04 21:52 | 42.57683 | 52.63520 | 29000 ft | 523 kts | 58° |
| 2026-05-04 21:52 | 42.61578 | 52.71855 | 29000 ft | 523 kts | 58° |
| 2026-05-04 21:53 | 42.65465 | 52.80199 | 29000 ft | 523 kts | 58° |
| 2026-05-04 21:53 | 42.69320 | 52.88496 | 29000 ft | 523 kts | 58° |
| 2026-05-04 21:54 | 42.73197 | 52.96862 | 29000 ft | 523 kts | 58° |
| 2026-05-04 21:54 | 42.77067 | 53.05239 | 29000 ft | 523 kts | 58° |
| 2026-05-04 21:55 | 42.80930 | 53.13624 | 29000 ft | 523 kts | 58° |
| 2026-05-04 21:55 | 42.84763 | 53.21966 | 29000 ft | 523 kts | 58° |
| 2026-05-04 21:56 | 42.88613 | 53.30370 | 29000 ft | 523 kts | 58° |
| 2026-05-04 21:56 | 42.92459 | 53.38790 | 29000 ft | 523 kts | 58° |
| 2026-05-04 21:57 | 42.96297 | 53.47215 | 29000 ft | 523 kts | 58° |
| 2026-05-04 21:57 | 42.99941 | 53.55727 | 29000 ft | 523 kts | 65° |
| 2026-05-04 21:58 | 43.01878 | 53.65247 | 29002 ft | 522 kts | 82° |
| 2026-05-04 21:58 | 43.02697 | 53.75099 | 29000 ft | 522 kts | 85° |
| 2026-05-04 21:59 | 43.03313 | 53.84987 | 29000 ft | 522 kts | 85° |
| 2026-05-04 21:59 | 43.03921 | 53.94813 | 29000 ft | 522 kts | 85° |
| 2026-05-04 22:00 | 43.04557 | 54.04701 | 29000 ft | 522 kts | 85° |
| 2026-05-04 22:00 | 43.05200 | 54.14590 | 29000 ft | 522 kts | 85° |
| 2026-05-04 22:01 | 43.05836 | 54.24479 | 29000 ft | 522 kts | 85° |
| 2026-05-04 22:01 | 43.06458 | 54.34305 | 29000 ft | 522 kts | 85° |
| 2026-05-04 22:02 | 43.07075 | 54.44201 | 29000 ft | 522 kts | 85° |
| 2026-05-04 22:02 | 43.07683 | 54.54098 | 29000 ft | 522 kts | 85° |
| 2026-05-04 22:03 | 43.08282 | 54.63995 | 29000 ft | 522 kts | 85° |
| 2026-05-04 22:03 | 43.08873 | 54.73894 | 29000 ft | 522 kts | 85° |
| 2026-05-04 22:04 | 43.09452 | 54.83730 | 29000 ft | 522 kts | 85° |
| 2026-05-04 22:04 | 43.10026 | 54.93635 | 29000 ft | 522 kts | 85° |
| 2026-05-04 22:05 | 43.10591 | 55.03539 | 29000 ft | 522 kts | 85° |
| 2026-05-04 22:05 | 43.11148 | 55.13448 | 29000 ft | 522 kts | 86° |
| 2026-05-04 22:06 | 43.11693 | 55.23291 | 29000 ft | 522 kts | 86° |
| 2026-05-04 22:06 | 43.12233 | 55.33201 | 29000 ft | 522 kts | 86° |
| 2026-05-04 22:07 | 43.12764 | 55.43113 | 29000 ft | 522 kts | 86° |
| 2026-05-04 22:07 | 43.13283 | 55.52962 | 29000 ft | 522 kts | 86° |
| 2026-05-04 22:08 | 43.13798 | 55.62878 | 29000 ft | 522 kts | 86° |
| 2026-05-04 22:08 | 43.14303 | 55.72791 | 29000 ft | 522 kts | 86° |
| 2026-05-04 22:09 | 43.14800 | 55.82713 | 29000 ft | 522 kts | 86° |
| 2026-05-04 22:09 | 43.15289 | 55.92637 | 29000 ft | 522 kts | 86° |
| 2026-05-04 22:10 | 43.16256 | 56.02405 | 29003 ft | 522 kts | 76° |
| 2026-05-04 22:10 | 43.18132 | 56.12016 | 29000 ft | 522 kts | 74° |
| 2026-05-04 22:11 | 43.20162 | 56.21574 | 29000 ft | 522 kts | 73° |
| 2026-05-04 22:11 | 43.22199 | 56.31134 | 29000 ft | 522 kts | 74° |
| 2026-05-04 22:12 | 43.24211 | 56.40713 | 29000 ft | 522 kts | 74° |
| 2026-05-04 22:12 | 43.26189 | 56.50228 | 29000 ft | 522 kts | 74° |
| 2026-05-04 22:13 | 43.28171 | 56.59822 | 29000 ft | 522 kts | 74° |
| 2026-05-04 22:13 | 43.30146 | 56.69421 | 29000 ft | 522 kts | 74° |
| 2026-05-04 22:14 | 43.32099 | 56.78958 | 29000 ft | 522 kts | 74° |
| 2026-05-04 22:14 | 43.34058 | 56.88567 | 29000 ft | 522 kts | 75° |
| 2026-05-04 22:15 | 43.36009 | 56.98185 | 29000 ft | 522 kts | 75° |
| 2026-05-04 22:15 | 43.37952 | 57.07803 | 29000 ft | 522 kts | 75° |
| 2026-05-04 22:16 | 43.39886 | 57.17431 | 29000 ft | 522 kts | 75° |
| 2026-05-04 22:16 | 43.41800 | 57.27001 | 29000 ft | 522 kts | 75° |
| 2026-05-04 22:17 | 43.43719 | 57.36640 | 29000 ft | 522 kts | 75° |
| 2026-05-04 22:17 | 43.45630 | 57.46287 | 29000 ft | 522 kts | 75° |
| 2026-05-04 22:18 | 43.47532 | 57.55938 | 29000 ft | 522 kts | 75° |
| 2026-05-04 22:18 | 43.49427 | 57.65599 | 29000 ft | 522 kts | 75° |
| 2026-05-04 22:19 | 43.51300 | 57.75197 | 29000 ft | 522 kts | 75° |
| 2026-05-04 22:19 | 43.53179 | 57.84871 | 29000 ft | 522 kts | 75° |
| 2026-05-04 22:20 | 43.55048 | 57.94543 | 29000 ft | 522 kts | 75° |
| 2026-05-04 22:20 | 43.56910 | 58.04225 | 29000 ft | 522 kts | 75° |
| 2026-05-04 22:21 | 43.58752 | 58.13854 | 29000 ft | 522 kts | 75° |
| 2026-05-04 22:21 | 43.60596 | 58.23544 | 29000 ft | 522 kts | 75° |
| 2026-05-04 22:22 | 43.62434 | 58.33243 | 29000 ft | 522 kts | 75° |
| 2026-05-04 22:22 | 43.64253 | 58.42949 | 29000 ft | 522 kts | 76° |
| 2026-05-04 22:23 | 43.66035 | 58.52676 | 29000 ft | 522 kts | 76° |
| 2026-05-04 22:23 | 43.67794 | 58.62343 | 29000 ft | 522 kts | 76° |
| 2026-05-04 22:24 | 43.69562 | 58.72081 | 29000 ft | 522 kts | 76° |
| 2026-05-04 22:24 | 43.71323 | 58.81819 | 29000 ft | 522 kts | 76° |
| 2026-05-04 22:25 | 43.73077 | 58.91565 | 29000 ft | 522 kts | 76° |
| 2026-05-04 22:25 | 43.74811 | 59.01249 | 29000 ft | 522 kts | 76° |
| 2026-05-04 22:26 | 43.76570 | 59.11000 | 29000 ft | 522 kts | 76° |
| 2026-05-04 22:26 | 43.78356 | 59.20743 | 29000 ft | 522 kts | 76° |
| 2026-05-04 22:27 | 43.80135 | 59.30495 | 29000 ft | 522 kts | 76° |
| 2026-05-04 22:27 | 43.81888 | 59.40186 | 29000 ft | 522 kts | 76° |
| 2026-05-04 22:28 | 43.83643 | 59.49948 | 29000 ft | 522 kts | 76° |
| 2026-05-04 22:28 | 43.85388 | 59.59715 | 29000 ft | 522 kts | 76° |
| 2026-05-04 22:29 | 43.87114 | 59.69424 | 29000 ft | 522 kts | 76° |
| 2026-05-04 22:29 | 43.88829 | 59.79207 | 29000 ft | 522 kts | 77° |
| 2026-05-04 22:30 | 43.90505 | 59.89009 | 29000 ft | 522 kts | 77° |
| 2026-05-04 22:30 | 43.92174 | 59.98817 | 29000 ft | 522 kts | 77° |
| 2026-05-04 22:31 | 43.93829 | 60.08558 | 29000 ft | 522 kts | 77° |
| 2026-05-04 22:31 | 43.95490 | 60.18374 | 29000 ft | 522 kts | 77° |
| 2026-05-04 22:32 | 43.97141 | 60.28188 | 29000 ft | 522 kts | 77° |
| 2026-05-04 22:32 | 43.98785 | 60.38014 | 29000 ft | 522 kts | 77° |
| 2026-05-04 22:33 | 44.00410 | 60.47781 | 29000 ft | 522 kts | 77° |
| 2026-05-04 22:33 | 44.02037 | 60.57616 | 29000 ft | 522 kts | 77° |
| 2026-05-04 22:34 | 44.03655 | 60.67454 | 29000 ft | 522 kts | 77° |
| 2026-05-04 22:34 | 44.05265 | 60.77300 | 29000 ft | 522 kts | 77° |
| 2026-05-04 22:35 | 44.06855 | 60.87083 | 29000 ft | 522 kts | 77° |
| 2026-05-04 22:35 | 44.08448 | 60.96942 | 29000 ft | 522 kts | 77° |
| 2026-05-04 22:36 | 44.10033 | 61.06803 | 29000 ft | 522 kts | 77° |
| 2026-05-04 22:36 | 44.11608 | 61.16668 | 29000 ft | 522 kts | 77° |
| 2026-05-04 22:37 | 44.13166 | 61.26477 | 29000 ft | 522 kts | 78° |
| 2026-05-04 22:37 | 44.14277 | 61.36455 | 29000 ft | 522 kts | 85° |
| 2026-05-04 22:38 | 44.14807 | 61.46534 | 29000 ft | 522 kts | 86° |
| 2026-05-04 22:38 | 44.15227 | 61.56630 | 29000 ft | 522 kts | 87° |
| 2026-05-04 22:39 | 44.15639 | 61.66724 | 29000 ft | 522 kts | 87° |
| 2026-05-04 22:39 | 44.16056 | 61.76750 | 29000 ft | 522 kts | 87° |
| 2026-05-04 22:40 | 44.16472 | 61.86841 | 29000 ft | 522 kts | 87° |
| 2026-05-04 22:40 | 44.16881 | 61.96941 | 29000 ft | 522 kts | 87° |
| 2026-05-04 22:41 | 44.17281 | 62.07039 | 29000 ft | 522 kts | 87° |
| 2026-05-04 22:41 | 44.17669 | 62.17068 | 29000 ft | 522 kts | 87° |
| 2026-05-04 22:42 | 44.18051 | 62.27170 | 29000 ft | 522 kts | 87° |
| 2026-05-04 22:42 | 44.18424 | 62.37267 | 29000 ft | 522 kts | 87° |
| 2026-05-04 22:43 | 44.18770 | 62.47375 | 29000 ft | 522 kts | 87° |
| 2026-05-04 22:43 | 44.19102 | 62.57413 | 29000 ft | 522 kts | 88° |
| 2026-05-04 22:44 | 44.19431 | 62.67521 | 29000 ft | 522 kts | 88° |
| 2026-05-04 22:44 | 44.19753 | 62.77626 | 29000 ft | 522 kts | 88° |
| 2026-05-04 22:45 | 44.20067 | 62.87731 | 29000 ft | 522 kts | 88° |
| 2026-05-04 22:45 | 44.20518 | 63.02828 | 29000 ft | 522 kts | 88° |
| 2026-05-04 22:46 | 44.20809 | 63.12935 | 29000 ft | 522 kts | 88° |
| 2026-05-04 22:46 | 44.21066 | 63.23053 | 29000 ft | 522 kts | 89° |
| 2026-05-04 22:47 | 44.21182 | 63.33171 | 29000 ft | 522 kts | 89° |
| 2026-05-04 22:47 | 44.21269 | 63.43284 | 29000 ft | 522 kts | 89° |
| 2026-05-04 22:48 | 44.21366 | 63.53337 | 29000 ft | 522 kts | 89° |
| 2026-05-04 22:48 | 44.21468 | 63.63452 | 29000 ft | 522 kts | 89° |
| 2026-05-04 22:49 | 44.21563 | 63.73573 | 29000 ft | 522 kts | 89° |
| 2026-05-04 22:49 | 44.21649 | 63.83689 | 29000 ft | 522 kts | 89° |
| 2026-05-04 22:50 | 44.21726 | 63.93742 | 29000 ft | 522 kts | 89° |
| 2026-05-04 22:50 | 44.21793 | 64.03856 | 29000 ft | 522 kts | 90° |
| 2026-05-04 22:51 | 44.21851 | 64.13981 | 29000 ft | 522 kts | 90° |
| 2026-05-04 22:51 | 44.22018 | 64.24094 | 29000 ft | 522 kts | 87° |
| 2026-05-04 22:52 | 44.22533 | 64.34123 | 29000 ft | 522 kts | 85° |
| 2026-05-04 22:52 | 44.23077 | 64.44218 | 29000 ft | 522 kts | 86° |
| 2026-05-04 22:53 | 44.23557 | 64.54320 | 29000 ft | 522 kts | 86° |
| 2026-05-04 22:53 | 44.23925 | 64.62719 | 29000 ft | 522 kts | 86° |
| 2026-05-04 22:54 | 44.24419 | 64.74463 | 29000 ft | 522 kts | 87° |
| 2026-05-04 22:54 | 44.24838 | 64.84573 | 29000 ft | 522 kts | 87° |
| 2026-05-04 22:55 | 44.25227 | 64.94688 | 29000 ft | 522 kts | 87° |
| 2026-05-04 22:55 | 44.25530 | 65.03094 | 29000 ft | 522 kts | 87° |
| 2026-05-04 22:56 | 44.25948 | 65.14847 | 29000 ft | 522 kts | 87° |
| 2026-05-04 22:56 | 44.26302 | 65.24965 | 29000 ft | 522 kts | 87° |
| 2026-05-04 22:57 | 44.26649 | 65.35081 | 29000 ft | 522 kts | 87° |
| 2026-05-04 22:57 | 44.26931 | 65.43492 | 29000 ft | 522 kts | 88° |
| 2026-05-04 22:58 | 44.27316 | 65.55321 | 29000 ft | 522 kts | 88° |
| 2026-05-04 22:58 | 44.27583 | 65.63727 | 29000 ft | 522 kts | 88° |
| 2026-05-04 22:59 | 44.27893 | 65.73781 | 29000 ft | 522 kts | 88° |
| 2026-05-04 22:59 | 44.28197 | 65.83905 | 29000 ft | 522 kts | 88° |
| 2026-05-04 23:00 | 44.28491 | 65.94030 | 29000 ft | 522 kts | 88° |
| 2026-05-04 23:00 | 44.28777 | 66.04155 | 29000 ft | 522 kts | 88° |
| 2026-05-04 23:01 | 44.29098 | 66.15923 | 29000 ft | 522 kts | 88° |
| 2026-05-04 23:01 | 44.29364 | 66.26047 | 29000 ft | 522 kts | 88° |
| 2026-05-04 23:02 | 44.29622 | 66.36172 | 29000 ft | 522 kts | 88° |
| 2026-05-04 23:02 | 44.29828 | 66.44591 | 29000 ft | 522 kts | 88° |
| 2026-05-04 23:03 | 44.29957 | 66.56367 | 29000 ft | 522 kts | 90° |
| 2026-05-04 23:03 | 44.29996 | 66.66501 | 29000 ft | 522 kts | 90° |
| 2026-05-04 23:04 | 44.30034 | 66.74920 | 29000 ft | 522 kts | 90° |
| 2026-05-04 23:04 | 44.30097 | 66.86697 | 29000 ft | 522 kts | 90° |
| 2026-05-04 23:05 | 44.30147 | 66.96833 | 29000 ft | 522 kts | 90° |
| 2026-05-04 23:05 | 44.30182 | 67.05255 | 29000 ft | 522 kts | 90° |
| 2026-05-04 23:06 | 44.30215 | 67.15388 | 29000 ft | 522 kts | 90° |
| 2026-05-04 23:06 | 44.30238 | 67.25523 | 29000 ft | 522 kts | 90° |
| 2026-05-04 23:07 | 44.30253 | 67.35653 | 29000 ft | 522 kts | 90° |
| 2026-05-04 23:07 | 44.30258 | 67.45719 | 29000 ft | 522 kts | 90° |
| 2026-05-04 23:08 | 44.30280 | 67.55855 | 28999 ft | 522 kts | 88° |
| 2026-05-04 23:08 | 44.30779 | 67.65961 | 29000 ft | 522 kts | 85° |
| 2026-05-04 23:09 | 44.31451 | 67.76059 | 29000 ft | 522 kts | 85° |
| 2026-05-04 23:09 | 44.32050 | 67.86095 | 29000 ft | 522 kts | 85° |
| 2026-05-04 23:10 | 44.32588 | 67.96205 | 29000 ft | 522 kts | 86° |
| 2026-05-04 23:10 | 44.33098 | 68.06321 | 29000 ft | 522 kts | 86° |
| 2026-05-04 23:11 | 44.33597 | 68.16371 | 29000 ft | 522 kts | 86° |
| 2026-05-04 23:11 | 44.34092 | 68.26489 | 29000 ft | 522 kts | 86° |
| 2026-05-04 23:12 | 44.34580 | 68.36610 | 29000 ft | 522 kts | 86° |
| 2026-05-04 23:12 | 44.35060 | 68.46734 | 29000 ft | 522 kts | 86° |
| 2026-05-04 23:13 | 44.35527 | 68.56787 | 29000 ft | 522 kts | 86° |
| 2026-05-04 23:13 | 44.35988 | 68.66912 | 29000 ft | 522 kts | 86° |
| 2026-05-04 23:14 | 44.36441 | 68.77040 | 29000 ft | 522 kts | 86° |
| 2026-05-04 23:14 | 44.36884 | 68.87169 | 29000 ft | 522 kts | 86° |
| 2026-05-04 23:15 | 44.36776 | 68.97229 | 29000 ft | 522 kts | 93° |
| 2026-05-04 23:15 | 44.36328 | 69.07353 | 29000 ft | 522 kts | 94° |
| 2026-05-04 23:16 | 44.35813 | 69.17472 | 29000 ft | 522 kts | 94° |
| 2026-05-04 23:16 | 44.35293 | 69.27584 | 29000 ft | 522 kts | 94° |
| 2026-05-04 23:17 | 44.34778 | 69.37627 | 29000 ft | 522 kts | 94° |
| 2026-05-04 23:17 | 44.34254 | 69.47742 | 29000 ft | 522 kts | 94° |
| 2026-05-04 23:18 | 44.33723 | 69.57853 | 29000 ft | 522 kts | 94° |
| 2026-05-04 23:18 | 44.33182 | 69.67963 | 29000 ft | 522 kts | 94° |
| 2026-05-04 23:19 | 44.32636 | 69.77999 | 29000 ft | 522 kts | 95° |
| 2026-05-04 23:19 | 44.32077 | 69.88104 | 29000 ft | 522 kts | 95° |
| 2026-05-04 23:20 | 44.31509 | 69.98206 | 29000 ft | 522 kts | 95° |
| 2026-05-04 23:20 | 44.30933 | 70.08307 | 29000 ft | 522 kts | 95° |
| 2026-05-04 23:21 | 44.30347 | 70.18405 | 29000 ft | 522 kts | 95° |
| 2026-05-04 23:21 | 44.29757 | 70.28430 | 29000 ft | 522 kts | 95° |
| 2026-05-04 23:22 | 44.29154 | 70.38526 | 29000 ft | 522 kts | 95° |
| 2026-05-04 23:22 | 44.28534 | 70.48615 | 29000 ft | 522 kts | 95° |
| 2026-05-04 23:23 | 44.27903 | 70.58704 | 29000 ft | 522 kts | 95° |
| 2026-05-04 23:23 | 44.27270 | 70.68723 | 29000 ft | 522 kts | 95° |
| 2026-05-04 23:24 | 44.26624 | 70.78809 | 29000 ft | 522 kts | 95° |
| 2026-05-04 23:24 | 44.25970 | 70.88887 | 29000 ft | 522 kts | 95° |
| 2026-05-04 23:25 | 44.25307 | 70.98966 | 29000 ft | 522 kts | 95° |
| 2026-05-04 23:25 | 44.24639 | 71.08977 | 29000 ft | 522 kts | 95° |
| 2026-05-04 23:26 | 44.23958 | 71.19053 | 29000 ft | 522 kts | 96° |
| 2026-05-04 23:26 | 44.23269 | 71.29126 | 29000 ft | 522 kts | 96° |
| 2026-05-04 23:27 | 44.22570 | 71.39195 | 29000 ft | 522 kts | 96° |
| 2026-05-04 23:27 | 44.21888 | 71.49198 | 29000 ft | 522 kts | 95° |
| 2026-05-04 23:28 | 44.21212 | 71.59269 | 29000 ft | 522 kts | 95° |
| 2026-05-04 23:28 | 44.20525 | 71.69338 | 29000 ft | 522 kts | 96° |
| 2026-05-04 23:29 | 44.19827 | 71.79402 | 29000 ft | 522 kts | 96° |
| 2026-05-04 23:29 | 44.19122 | 71.89398 | 29000 ft | 522 kts | 96° |
| 2026-05-04 23:30 | 44.18404 | 71.99462 | 29000 ft | 522 kts | 96° |
| 2026-05-04 23:30 | 44.17678 | 72.09515 | 29000 ft | 522 kts | 96° |
| 2026-05-04 23:31 | 44.16942 | 72.19570 | 29000 ft | 522 kts | 96° |
| 2026-05-04 23:31 | 44.16198 | 72.29624 | 29000 ft | 522 kts | 96° |
| 2026-05-04 23:32 | 44.15450 | 72.39606 | 29000 ft | 522 kts | 96° |
| 2026-05-04 23:32 | 44.14688 | 72.49657 | 29000 ft | 522 kts | 96° |
| 2026-05-04 23:33 | 44.13917 | 72.59701 | 29000 ft | 522 kts | 96° |
| 2026-05-04 23:33 | 44.13138 | 72.69740 | 29000 ft | 522 kts | 96° |
| 2026-05-04 23:34 | 44.12355 | 72.79713 | 29000 ft | 522 kts | 96° |
| 2026-05-04 23:34 | 44.11558 | 72.89749 | 29000 ft | 522 kts | 96° |
| 2026-05-04 23:35 | 44.10753 | 72.99786 | 29000 ft | 522 kts | 96° |
| 2026-05-04 23:35 | 44.09931 | 73.09813 | 29000 ft | 522 kts | 97° |
| 2026-05-04 23:36 | 44.09094 | 73.19839 | 29000 ft | 522 kts | 97° |
| 2026-05-04 23:36 | 44.08255 | 73.29795 | 29000 ft | 522 kts | 97° |
| 2026-05-04 23:37 | 44.07403 | 73.39817 | 29000 ft | 522 kts | 97° |
| 2026-05-04 23:37 | 44.06544 | 73.49835 | 29000 ft | 522 kts | 97° |
| 2026-05-04 23:38 | 44.05676 | 73.59845 | 29000 ft | 522 kts | 97° |
| 2026-05-04 23:38 | 44.04798 | 73.69860 | 29000 ft | 522 kts | 97° |
| 2026-05-04 23:39 | 44.03919 | 73.79798 | 29000 ft | 522 kts | 97° |
| 2026-05-04 23:39 | 44.03024 | 73.89806 | 29000 ft | 522 kts | 97° |
| 2026-05-04 23:40 | 44.02120 | 73.99810 | 29000 ft | 522 kts | 97° |
| 2026-05-04 23:40 | 44.01208 | 74.09808 | 29000 ft | 522 kts | 97° |
| 2026-05-04 23:41 | 44.00294 | 74.19736 | 29000 ft | 522 kts | 97° |
| 2026-05-04 23:41 | 43.99365 | 74.29729 | 29000 ft | 522 kts | 97° |
| 2026-05-04 23:42 | 43.98426 | 74.39723 | 29000 ft | 522 kts | 97° |
| 2026-05-04 23:42 | 43.97480 | 74.49709 | 29000 ft | 522 kts | 98° |
| 2026-05-04 23:43 | 43.96575 | 74.59634 | 29000 ft | 522 kts | 97° |
| 2026-05-04 23:43 | 43.95718 | 74.69631 | 29000 ft | 522 kts | 97° |
| 2026-05-04 23:44 | 43.94850 | 74.79626 | 29000 ft | 522 kts | 97° |
| 2026-05-04 23:44 | 43.93963 | 74.89617 | 29000 ft | 522 kts | 97° |
| 2026-05-04 23:45 | 43.93062 | 74.99609 | 29000 ft | 522 kts | 97° |
| 2026-05-04 23:45 | 43.92158 | 75.09528 | 29000 ft | 522 kts | 97° |
| 2026-05-04 23:46 | 43.91240 | 75.19509 | 29000 ft | 522 kts | 97° |
| 2026-05-04 23:46 | 43.90313 | 75.29488 | 29000 ft | 522 kts | 97° |
| 2026-05-04 23:47 | 43.89378 | 75.39460 | 29000 ft | 522 kts | 97° |
| 2026-05-04 23:47 | 43.88441 | 75.49366 | 29000 ft | 522 kts | 98° |
| 2026-05-04 23:48 | 43.87488 | 75.59338 | 29000 ft | 522 kts | 98° |
| 2026-05-04 23:48 | 43.86527 | 75.69302 | 29000 ft | 522 kts | 98° |
| 2026-05-04 23:49 | 43.85557 | 75.79264 | 29000 ft | 522 kts | 98° |
| 2026-05-04 23:49 | 43.84585 | 75.89155 | 29000 ft | 522 kts | 98° |
| 2026-05-04 23:50 | 43.83599 | 75.99108 | 29000 ft | 522 kts | 98° |
| 2026-05-04 23:50 | 43.82531 | 76.09048 | 29000 ft | 522 kts | 99° |
| 2026-05-04 23:51 | 43.81332 | 76.18952 | 29000 ft | 522 kts | 100° |
| 2026-05-04 23:51 | 43.80134 | 76.28786 | 29000 ft | 522 kts | 99° |
| 2026-05-04 23:52 | 43.78940 | 76.38688 | 29000 ft | 522 kts | 99° |
| 2026-05-04 23:52 | 43.77747 | 76.48594 | 29000 ft | 522 kts | 99° |
| 2026-05-04 23:53 | 43.76548 | 76.58488 | 29000 ft | 522 kts | 99° |
| 2026-05-04 23:53 | 43.75339 | 76.68387 | 29000 ft | 522 kts | 100° |
| 2026-05-04 23:54 | 43.74130 | 76.78208 | 29000 ft | 522 kts | 100° |
| 2026-05-04 23:54 | 43.72903 | 76.88097 | 29000 ft | 522 kts | 100° |
| 2026-05-04 23:55 | 43.71668 | 76.97976 | 29000 ft | 522 kts | 100° |
| 2026-05-04 23:56 | 43.69800 | 77.12789 | 29000 ft | 522 kts | 100° |
| 2026-05-04 23:56 | 43.68554 | 77.22596 | 29000 ft | 522 kts | 100° |
| 2026-05-04 23:57 | 43.67285 | 77.32462 | 29000 ft | 522 kts | 100° |
| 2026-05-04 23:57 | 43.66002 | 77.42323 | 29000 ft | 522 kts | 100° |
| 2026-05-04 23:58 | 43.64713 | 77.52176 | 29000 ft | 522 kts | 100° |
| 2026-05-04 23:58 | 43.63417 | 77.62032 | 29000 ft | 522 kts | 101° |
| 2026-05-04 23:59 | 43.62122 | 77.71810 | 29000 ft | 522 kts | 101° |
| 2026-05-04 23:59 | 43.60808 | 77.81659 | 29000 ft | 522 kts | 101° |
| 2026-05-05 00:00 | 43.59487 | 77.91498 | 29000 ft | 522 kts | 101° |
| 2026-05-05 00:00 | 43.58158 | 78.01331 | 29000 ft | 522 kts | 101° |
| 2026-05-05 00:01 | 43.57392 | 78.11267 | 29000 ft | 522 kts | 93° |
| 2026-05-05 00:01 | 43.57156 | 78.21203 | 29000 ft | 522 kts | 91° |
| 2026-05-05 00:02 | 43.56999 | 78.31212 | 29000 ft | 522 kts | 91° |
| 2026-05-05 00:02 | 43.56832 | 78.41217 | 29000 ft | 522 kts | 91° |
| 2026-05-05 00:03 | 43.56644 | 78.51156 | 29000 ft | 522 kts | 92° |
| 2026-05-05 00:03 | 43.56439 | 78.61158 | 29000 ft | 522 kts | 92° |
| 2026-05-05 00:04 | 43.56224 | 78.71159 | 29000 ft | 522 kts | 92° |
| 2026-05-05 00:04 | 43.56001 | 78.81162 | 29000 ft | 522 kts | 92° |
| 2026-05-05 00:05 | 43.55772 | 78.91093 | 29000 ft | 522 kts | 92° |
| 2026-05-05 00:05 | 43.55532 | 79.01099 | 29000 ft | 522 kts | 92° |
| 2026-05-05 00:06 | 43.55283 | 79.11097 | 29000 ft | 522 kts | 92° |
| 2026-05-05 00:06 | 43.55026 | 79.21093 | 29000 ft | 522 kts | 92° |
| 2026-05-05 00:07 | 43.54764 | 79.31027 | 29000 ft | 522 kts | 92° |
| 2026-05-05 00:07 | 43.54489 | 79.41023 | 29000 ft | 522 kts | 92° |
| 2026-05-05 00:08 | 43.54204 | 79.51016 | 29000 ft | 522 kts | 92° |
| 2026-05-05 00:08 | 43.53911 | 79.61012 | 29000 ft | 522 kts | 92° |
| 2026-05-05 00:09 | 43.53610 | 79.71004 | 29000 ft | 522 kts | 92° |
| 2026-05-05 00:09 | 43.53303 | 79.80933 | 29000 ft | 522 kts | 92° |
| 2026-05-05 00:10 | 43.52986 | 79.90924 | 29000 ft | 522 kts | 92° |
| 2026-05-05 00:10 | 43.52659 | 80.00911 | 29000 ft | 522 kts | 93° |
| 2026-05-05 00:11 | 43.52324 | 80.10901 | 29000 ft | 522 kts | 93° |
| 2026-05-05 00:11 | 43.51982 | 80.20825 | 29000 ft | 522 kts | 93° |
| 2026-05-05 00:12 | 43.51630 | 80.30811 | 29000 ft | 522 kts | 93° |
| 2026-05-05 00:12 | 43.51269 | 80.40797 | 29000 ft | 522 kts | 93° |
| 2026-05-05 00:13 | 43.50900 | 80.50778 | 29000 ft | 522 kts | 93° |
| 2026-05-05 00:13 | 43.50521 | 80.60763 | 29000 ft | 522 kts | 93° |
| 2026-05-05 00:14 | 43.50137 | 80.70679 | 29000 ft | 522 kts | 93° |
| 2026-05-05 00:14 | 43.49821 | 80.80665 | 29000 ft | 522 kts | 91° |
| 2026-05-05 00:15 | 43.49716 | 80.90661 | 29000 ft | 522 kts | 91° |
| 2026-05-05 00:15 | 43.49616 | 81.00654 | 29000 ft | 522 kts | 91° |
| 2026-05-05 00:16 | 43.49474 | 81.10578 | 29000 ft | 522 kts | 91° |
| 2026-05-05 00:16 | 43.49304 | 81.20574 | 29000 ft | 522 kts | 91° |
| 2026-05-05 00:17 | 43.49121 | 81.30567 | 29000 ft | 522 kts | 91° |
| 2026-05-05 00:17 | 43.48931 | 81.40558 | 29000 ft | 522 kts | 91° |
| 2026-05-05 00:18 | 43.48734 | 81.50483 | 29000 ft | 522 kts | 92° |
| 2026-05-05 00:18 | 43.48528 | 81.60473 | 29000 ft | 522 kts | 92° |
| 2026-05-05 00:19 | 43.48314 | 81.70463 | 29000 ft | 522 kts | 92° |
| 2026-05-05 00:19 | 43.48084 | 81.80449 | 29000 ft | 522 kts | 92° |
| 2026-05-05 00:20 | 43.47833 | 81.90371 | 29000 ft | 522 kts | 92° |
| 2026-05-05 00:20 | 43.47574 | 82.00355 | 29000 ft | 522 kts | 92° |
| 2026-05-05 00:21 | 43.47309 | 82.10340 | 29000 ft | 522 kts | 92° |
| 2026-05-05 00:21 | 43.47036 | 82.20325 | 29000 ft | 522 kts | 92° |
| 2026-05-05 00:22 | 43.46757 | 82.30243 | 29000 ft | 522 kts | 92° |
| 2026-05-05 00:22 | 43.46467 | 82.40226 | 29000 ft | 522 kts | 92° |
| 2026-05-05 00:23 | 43.46168 | 82.50209 | 29000 ft | 522 kts | 92° |
| 2026-05-05 00:23 | 43.45863 | 82.60120 | 29000 ft | 522 kts | 92° |
| 2026-05-05 00:24 | 43.45547 | 82.70099 | 29000 ft | 522 kts | 92° |
| 2026-05-05 00:24 | 43.45222 | 82.80077 | 29000 ft | 522 kts | 93° |
| 2026-05-05 00:25 | 43.44889 | 82.90057 | 29000 ft | 522 kts | 93° |
| 2026-05-05 00:25 | 43.44549 | 82.99968 | 29000 ft | 522 kts | 93° |
| 2026-05-05 00:26 | 43.44199 | 83.09936 | 29000 ft | 522 kts | 93° |
| 2026-05-05 00:26 | 43.43840 | 83.19911 | 29000 ft | 522 kts | 93° |
| 2026-05-05 00:27 | 43.43472 | 83.29885 | 29000 ft | 522 kts | 93° |
| 2026-05-05 00:27 | 43.43092 | 83.39858 | 29000 ft | 522 kts | 94° |
| 2026-05-05 00:28 | 43.42363 | 83.49720 | 29000 ft | 522 kts | 97° |
| 2026-05-05 00:28 | 43.41423 | 83.59613 | 29000 ft | 522 kts | 97° |
| 2026-05-05 00:29 | 43.40516 | 83.69514 | 29000 ft | 522 kts | 97° |
| 2026-05-05 00:29 | 43.39651 | 83.79417 | 29000 ft | 522 kts | 97° |
| 2026-05-05 00:30 | 43.38800 | 83.89256 | 29000 ft | 522 kts | 97° |
| 2026-05-05 00:30 | 43.37936 | 83.99161 | 29000 ft | 522 kts | 97° |
| 2026-05-05 00:31 | 43.37061 | 84.09061 | 29000 ft | 522 kts | 97° |
| 2026-05-05 00:31 | 43.36175 | 84.18959 | 29000 ft | 522 kts | 97° |
| 2026-05-05 00:32 | 43.35282 | 84.28851 | 29000 ft | 522 kts | 97° |
| 2026-05-05 00:32 | 43.34387 | 84.38675 | 29000 ft | 522 kts | 97° |
| 2026-05-05 00:33 | 43.33462 | 84.48560 | 29000 ft | 522 kts | 97° |
| 2026-05-05 00:33 | 43.32512 | 84.58438 | 29000 ft | 522 kts | 98° |
| 2026-05-05 00:34 | 43.31557 | 84.68315 | 29000 ft | 522 kts | 98° |
| 2026-05-05 00:34 | 43.30604 | 84.78121 | 28999 ft | 522 kts | 98° |
| 2026-05-05 00:35 | 43.29638 | 84.87990 | 29000 ft | 522 kts | 98° |
| 2026-05-05 00:35 | 43.28663 | 84.97859 | 29000 ft | 522 kts | 98° |
| 2026-05-05 00:36 | 43.27679 | 85.07725 | 29001 ft | 522 kts | 98° |
| 2026-05-05 00:36 | 43.26694 | 85.17520 | 29000 ft | 522 kts | 98° |
| 2026-05-05 00:37 | 43.25694 | 85.27380 | 29000 ft | 522 kts | 98° |
| 2026-05-05 00:37 | 43.24685 | 85.37232 | 29000 ft | 522 kts | 98° |
| 2026-05-05 00:38 | 43.23668 | 85.47079 | 29001 ft | 522 kts | 98° |
| 2026-05-05 00:38 | 43.22649 | 85.56864 | 29000 ft | 522 kts | 98° |
| 2026-05-05 00:39 | 43.21615 | 85.66706 | 29000 ft | 522 kts | 98° |
| 2026-05-05 00:39 | 43.20572 | 85.76550 | 29001 ft | 522 kts | 98° |
| 2026-05-05 00:40 | 43.19526 | 85.86387 | 28999 ft | 522 kts | 98° |
| 2026-05-05 00:40 | 43.19649 | 85.96223 | 29000 ft | 522 kts | 79° |
| 2026-05-05 00:41 | 43.22260 | 86.05449 | 29004 ft | 522 kts | 59° |
| 2026-05-05 00:41 | 43.26148 | 86.13867 | 28999 ft | 523 kts | 56° |
| 2026-05-05 00:42 | 43.30215 | 86.22139 | 28999 ft | 523 kts | 56° |
| 2026-05-05 00:42 | 43.34266 | 86.30348 | 29000 ft | 523 kts | 56° |
| 2026-05-05 00:43 | 43.38327 | 86.38639 | 29000 ft | 523 kts | 56° |
| 2026-05-05 00:43 | 43.42361 | 86.46952 | 29000 ft | 523 kts | 56° |
| 2026-05-05 00:44 | 43.46407 | 86.55266 | 28999 ft | 523 kts | 56° |
| 2026-05-05 00:44 | 43.50426 | 86.63527 | 29000 ft | 523 kts | 56° |
| 2026-05-05 00:45 | 43.54467 | 86.71859 | 28999 ft | 523 kts | 56° |
| 2026-05-05 00:45 | 43.58470 | 86.80225 | 29000 ft | 523 kts | 57° |
| 2026-05-05 00:46 | 43.62433 | 86.88637 | 29000 ft | 523 kts | 57° |
| 2026-05-05 00:46 | 43.66393 | 86.97056 | 29000 ft | 523 kts | 57° |
| 2026-05-05 00:47 | 43.70326 | 87.05422 | 29000 ft | 523 kts | 57° |
| 2026-05-05 00:47 | 43.74283 | 87.13856 | 29000 ft | 523 kts | 57° |
| 2026-05-05 00:48 | 43.78234 | 87.22300 | 28999 ft | 523 kts | 57° |
| 2026-05-05 00:48 | 43.82171 | 87.30763 | 29000 ft | 523 kts | 57° |
| 2026-05-05 00:49 | 43.86076 | 87.39179 | 29000 ft | 523 kts | 57° |
| 2026-05-05 00:49 | 43.90002 | 87.47661 | 29000 ft | 523 kts | 57° |
| 2026-05-05 00:50 | 43.94034 | 87.56048 | 29000 ft | 523 kts | 53° |
| 2026-05-05 00:50 | 43.98486 | 87.64027 | 29000 ft | 523 kts | 51° |
| 2026-05-05 00:51 | 44.02952 | 87.71913 | 29000 ft | 523 kts | 52° |
| 2026-05-05 00:51 | 44.07381 | 87.79930 | 29000 ft | 523 kts | 53° |
| 2026-05-05 00:52 | 44.11767 | 87.87998 | 29000 ft | 523 kts | 53° |
| 2026-05-05 00:52 | 44.15949 | 87.96269 | 29000 ft | 523 kts | 61° |
| 2026-05-05 00:53 | 44.18441 | 88.05666 | 29000 ft | 522 kts | 76° |
| 2026-05-05 00:53 | 44.20029 | 88.15536 | 29000 ft | 522 kts | 78° |
| 2026-05-05 00:54 | 44.21452 | 88.25468 | 29000 ft | 522 kts | 79° |
| 2026-05-05 00:54 | 44.22877 | 88.35396 | 29000 ft | 522 kts | 79° |
| 2026-05-05 00:55 | 44.24313 | 88.45255 | 29000 ft | 522 kts | 78° |
| 2026-05-05 00:55 | 44.25763 | 88.55181 | 29000 ft | 522 kts | 78° |
| 2026-05-05 00:56 | 44.27205 | 88.65111 | 29000 ft | 522 kts | 79° |
| 2026-05-05 00:56 | 44.28638 | 88.75051 | 29000 ft | 522 kts | 79° |
| 2026-05-05 00:57 | 44.30061 | 88.84996 | 29000 ft | 522 kts | 79° |
| 2026-05-05 00:57 | 44.31466 | 88.94875 | 29000 ft | 522 kts | 79° |
| 2026-05-05 00:58 | 44.32871 | 89.04824 | 29000 ft | 522 kts | 79° |
| 2026-05-05 00:58 | 44.34269 | 89.14781 | 29000 ft | 522 kts | 79° |
| 2026-05-05 00:59 | 44.35657 | 89.24743 | 29000 ft | 522 kts | 79° |
| 2026-05-05 00:59 | 44.37028 | 89.34642 | 29000 ft | 522 kts | 79° |
| 2026-05-05 01:00 | 44.38399 | 89.44613 | 29000 ft | 522 kts | 79° |
| 2026-05-05 01:00 | 44.39761 | 89.54584 | 29000 ft | 522 kts | 79° |
| 2026-05-05 01:01 | 44.41005 | 89.64589 | 29000 ft | 522 kts | 85° |
| 2026-05-05 01:01 | 44.40515 | 89.74669 | 29004 ft | 521 kts | 103° |
| 2026-05-05 01:02 | 44.38627 | 89.84372 | 29000 ft | 521 kts | 107° |
| 2026-05-05 01:02 | 44.36474 | 89.94056 | 29000 ft | 521 kts | 108° |
| 2026-05-05 01:03 | 44.34309 | 90.03719 | 29000 ft | 521 kts | 107° |
| 2026-05-05 01:03 | 44.32168 | 90.13392 | 29000 ft | 521 kts | 107° |
| 2026-05-05 01:04 | 44.30051 | 90.23006 | 29000 ft | 521 kts | 107° |
| 2026-05-05 01:04 | 44.26843 | 90.37506 | 29000 ft | 521 kts | 107° |
| 2026-05-05 01:05 | 44.24692 | 90.47166 | 29000 ft | 521 kts | 107° |
| 2026-05-05 01:05 | 44.22534 | 90.56813 | 29000 ft | 521 kts | 108° |
| 2026-05-05 01:06 | 44.20381 | 90.66392 | 29000 ft | 521 kts | 108° |
| 2026-05-05 01:06 | 44.18206 | 90.76028 | 29000 ft | 521 kts | 108° |
| 2026-05-05 01:07 | 44.16022 | 90.85660 | 29000 ft | 521 kts | 108° |
| 2026-05-05 01:07 | 44.13831 | 90.95278 | 29000 ft | 521 kts | 108° |
| 2026-05-05 01:08 | 44.11632 | 91.04897 | 29000 ft | 521 kts | 108° |
| 2026-05-05 01:08 | 44.09446 | 91.14441 | 29000 ft | 521 kts | 108° |
| 2026-05-05 01:09 | 44.07230 | 91.24040 | 29000 ft | 521 kts | 108° |
| 2026-05-05 01:09 | 44.05005 | 91.33634 | 29000 ft | 521 kts | 108° |
| 2026-05-05 01:10 | 44.02776 | 91.43219 | 29000 ft | 521 kts | 108° |
| 2026-05-05 01:10 | 44.00529 | 91.52794 | 29000 ft | 521 kts | 108° |
| 2026-05-05 01:11 | 43.98272 | 91.62288 | 29000 ft | 521 kts | 108° |
| 2026-05-05 01:11 | 43.95994 | 91.71842 | 28999 ft | 521 kts | 108° |
| 2026-05-05 01:12 | 43.93712 | 91.81389 | 29000 ft | 521 kts | 109° |
| 2026-05-05 01:12 | 43.91423 | 91.90930 | 29000 ft | 521 kts | 109° |
| 2026-05-05 01:13 | 43.89140 | 92.00407 | 29000 ft | 521 kts | 109° |
| 2026-05-05 01:13 | 43.86836 | 92.09930 | 29000 ft | 521 kts | 109° |
| 2026-05-05 01:14 | 43.84523 | 92.19446 | 29000 ft | 521 kts | 109° |
| 2026-05-05 01:14 | 43.82202 | 92.28957 | 29000 ft | 521 kts | 109° |
| 2026-05-05 01:15 | 43.79875 | 92.38459 | 29000 ft | 521 kts | 109° |
| 2026-05-05 01:15 | 43.77553 | 92.47894 | 29000 ft | 521 kts | 109° |
| 2026-05-05 01:16 | 43.75208 | 92.57386 | 29000 ft | 521 kts | 109° |
| 2026-05-05 01:16 | 43.72858 | 92.66862 | 29000 ft | 521 kts | 109° |
| 2026-05-05 01:17 | 43.70498 | 92.76336 | 29000 ft | 521 kts | 109° |
| 2026-05-05 01:17 | 43.68146 | 92.85739 | 29000 ft | 521 kts | 109° |
| 2026-05-05 01:18 | 43.65771 | 92.95197 | 29000 ft | 521 kts | 109° |
| 2026-05-05 01:18 | 43.63418 | 93.04665 | 29000 ft | 521 kts | 109° |
| 2026-05-05 01:19 | 43.61160 | 93.14168 | 29000 ft | 521 kts | 108° |
| 2026-05-05 01:19 | 43.58921 | 93.23608 | 29000 ft | 521 kts | 108° |
| 2026-05-05 01:20 | 43.56643 | 93.33100 | 29000 ft | 521 kts | 109° |
| 2026-05-05 01:20 | 43.54350 | 93.42579 | 29000 ft | 521 kts | 109° |
| 2026-05-05 01:21 | 43.52047 | 93.52049 | 29000 ft | 521 kts | 109° |
| 2026-05-05 01:21 | 43.49736 | 93.61514 | 29000 ft | 521 kts | 109° |
| 2026-05-05 01:22 | 43.47433 | 93.70907 | 29000 ft | 521 kts | 109° |
| 2026-05-05 01:22 | 43.45107 | 93.80359 | 29000 ft | 521 kts | 109° |
| 2026-05-05 01:23 | 43.42774 | 93.89800 | 29000 ft | 521 kts | 109° |
| 2026-05-05 01:23 | 43.40433 | 93.99234 | 29000 ft | 521 kts | 109° |
| 2026-05-05 01:24 | 43.38098 | 94.08605 | 29000 ft | 521 kts | 109° |
| 2026-05-05 01:24 | 43.35743 | 94.18018 | 29000 ft | 521 kts | 109° |
| 2026-05-05 01:25 | 43.33379 | 94.27433 | 29000 ft | 521 kts | 109° |
| 2026-05-05 01:25 | 43.31022 | 94.36779 | 29000 ft | 521 kts | 109° |
| 2026-05-05 01:26 | 43.28643 | 94.46174 | 29000 ft | 521 kts | 109° |
| 2026-05-05 01:26 | 43.26256 | 94.55564 | 29000 ft | 521 kts | 109° |
| 2026-05-05 01:27 | 43.23860 | 94.64951 | 29000 ft | 521 kts | 109° |
| 2026-05-05 01:27 | 43.21457 | 94.74330 | 29001 ft | 521 kts | 109° |
| 2026-05-05 01:28 | 43.19064 | 94.83634 | 29000 ft | 521 kts | 110° |
| 2026-05-05 01:28 | 43.16646 | 94.92996 | 29000 ft | 521 kts | 110° |
| 2026-05-05 01:29 | 43.14101 | 95.02285 | 29000 ft | 521 kts | 115° |
| 2026-05-05 01:29 | 43.10013 | 95.10407 | 29000 ft | 520 kts | 135° |
| 2026-05-05 01:30 | 43.04355 | 95.16532 | 29000 ft | 519 kts | 145° |
| 2026-05-05 01:30 | 42.98413 | 95.22032 | 29000 ft | 520 kts | 147° |
| 2026-05-05 01:31 | 42.92394 | 95.27499 | 29000 ft | 520 kts | 146° |
| 2026-05-05 01:31 | 42.86397 | 95.33004 | 29000 ft | 520 kts | 146° |
| 2026-05-05 01:32 | 42.80417 | 95.38527 | 29000 ft | 520 kts | 146° |
| 2026-05-05 01:32 | 42.74472 | 95.44017 | 29000 ft | 520 kts | 146° |
| 2026-05-05 01:33 | 42.68488 | 95.49528 | 29000 ft | 520 kts | 146° |
| 2026-05-05 01:33 | 42.62500 | 95.55028 | 29000 ft | 520 kts | 146° |
| 2026-05-05 01:34 | 42.56511 | 95.60514 | 29000 ft | 520 kts | 146° |
| 2026-05-05 01:34 | 42.50557 | 95.65956 | 29000 ft | 520 kts | 146° |
| 2026-05-05 01:35 | 42.44762 | 95.71786 | 29000 ft | 520 kts | 137° |
| 2026-05-05 01:35 | 42.40442 | 95.79586 | 29000 ft | 521 kts | 116° |
| 2026-05-05 01:36 | 42.39146 | 95.84153 | 29000 ft | 521 kts | 105° |
| 2026-05-05 01:36 | 42.38504 | 95.88968 | 29003 ft | 521 kts | 95° |
| 2026-05-05 01:36 | 42.38096 | 95.98697 | 29000 ft | 522 kts | 92° |
| 2026-05-05 01:37 | 42.37907 | 96.08507 | 29000 ft | 522 kts | 91° |
| 2026-05-05 01:37 | 42.37688 | 96.18317 | 29000 ft | 522 kts | 92° |
| 2026-05-05 01:38 | 42.37414 | 96.28127 | 29000 ft | 522 kts | 92° |
| 2026-05-05 01:38 | 42.37114 | 96.37931 | 29000 ft | 522 kts | 92° |
| 2026-05-05 01:39 | 42.36805 | 96.47673 | 29000 ft | 522 kts | 92° |
| 2026-05-05 01:39 | 42.36489 | 96.57478 | 29000 ft | 522 kts | 92° |
| 2026-05-05 01:40 | 42.36165 | 96.67279 | 29000 ft | 522 kts | 92° |
| 2026-05-05 01:40 | 42.35833 | 96.77082 | 29000 ft | 522 kts | 93° |
| 2026-05-05 01:41 | 42.35495 | 96.86817 | 29000 ft | 522 kts | 93° |
| 2026-05-05 01:41 | 42.35146 | 96.96614 | 29000 ft | 522 kts | 93° |
| 2026-05-05 01:42 | 42.34789 | 97.06415 | 29000 ft | 522 kts | 93° |
| 2026-05-05 01:42 | 42.34424 | 97.16208 | 29000 ft | 522 kts | 93° |
| 2026-05-05 01:43 | 42.34114 | 97.24354 | 29000 ft | 522 kts | 93° |
| 2026-05-05 01:43 | 42.33671 | 97.35736 | 29000 ft | 522 kts | 93° |
| 2026-05-05 01:44 | 42.33281 | 97.45529 | 29000 ft | 522 kts | 93° |
| 2026-05-05 01:44 | 42.32950 | 97.53670 | 29000 ft | 522 kts | 93° |
| 2026-05-05 01:45 | 42.32544 | 97.63462 | 29000 ft | 522 kts | 93° |
| 2026-05-05 01:45 | 42.32130 | 97.73250 | 29000 ft | 522 kts | 94° |
| 2026-05-05 01:46 | 42.31708 | 97.83036 | 29000 ft | 522 kts | 94° |
| 2026-05-05 01:46 | 42.31280 | 97.92762 | 29000 ft | 522 kts | 94° |
| 2026-05-05 01:47 | 42.30841 | 98.02548 | 29000 ft | 522 kts | 94° |
| 2026-05-05 01:47 | 42.30394 | 98.12329 | 29000 ft | 522 kts | 94° |
| 2026-05-05 01:48 | 42.29864 | 98.23702 | 29000 ft | 522 kts | 94° |
| 2026-05-05 01:48 | 42.29479 | 98.31825 | 29000 ft | 522 kts | 94° |
| 2026-05-05 01:49 | 42.28992 | 98.41607 | 29000 ft | 522 kts | 94° |
| 2026-05-05 01:49 | 42.28482 | 98.51382 | 29000 ft | 522 kts | 94° |
| 2026-05-05 01:50 | 42.27965 | 98.61155 | 29000 ft | 522 kts | 94° |
| 2026-05-05 01:50 | 42.27443 | 98.70927 | 29000 ft | 522 kts | 94° |
| 2026-05-05 01:51 | 42.26917 | 98.80632 | 29000 ft | 522 kts | 94° |
| 2026-05-05 01:51 | 42.26380 | 98.90403 | 29000 ft | 522 kts | 94° |
| 2026-05-05 01:52 | 42.25745 | 99.01755 | 29000 ft | 522 kts | 95° |
| 2026-05-05 01:52 | 42.25280 | 99.09934 | 29000 ft | 522 kts | 95° |
| 2026-05-05 01:53 | 42.24722 | 99.19637 | 29000 ft | 522 kts | 95° |
| 2026-05-05 01:53 | 42.24152 | 99.29395 | 29000 ft | 522 kts | 95° |
| 2026-05-05 01:54 | 42.23573 | 99.39159 | 29000 ft | 522 kts | 95° |
| 2026-05-05 01:54 | 42.22989 | 99.48856 | 29000 ft | 522 kts | 95° |
| 2026-05-05 01:55 | 42.22394 | 99.58605 | 29000 ft | 522 kts | 95° |
| 2026-05-05 01:55 | 42.21791 | 99.68360 | 29000 ft | 522 kts | 95° |
| 2026-05-05 01:56 | 42.21179 | 99.78116 | 29000 ft | 522 kts | 95° |
| 2026-05-05 01:56 | 42.20559 | 99.87865 | 29000 ft | 522 kts | 95° |
| 2026-05-05 01:57 | 42.19935 | 99.97551 | 29000 ft | 522 kts | 95° |
| 2026-05-05 01:57 | 42.19298 | 100.07299 | 29000 ft | 522 kts | 95° |
| 2026-05-05 01:58 | 42.18653 | 100.17046 | 29000 ft | 522 kts | 95° |
| 2026-05-05 01:58 | 42.18005 | 100.26725 | 29000 ft | 522 kts | 95° |
| 2026-05-05 01:59 | 42.17344 | 100.36467 | 29000 ft | 522 kts | 95° |
| 2026-05-05 01:59 | 42.16674 | 100.46206 | 29000 ft | 522 kts | 95° |
| 2026-05-05 02:00 | 42.15997 | 100.55941 | 29000 ft | 522 kts | 95° |
| 2026-05-05 02:00 | 42.15311 | 100.65677 | 29000 ft | 522 kts | 96° |
| 2026-05-05 02:01 | 42.14621 | 100.75346 | 29000 ft | 522 kts | 96° |
| 2026-05-05 02:01 | 42.13919 | 100.85074 | 29000 ft | 522 kts | 96° |
| 2026-05-05 02:02 | 42.13209 | 100.94802 | 29000 ft | 522 kts | 96° |
| 2026-05-05 02:02 | 42.12237 | 101.04479 | 29000 ft | 521 kts | 104° |
| 2026-05-05 02:03 | 42.10104 | 101.13736 | 29000 ft | 521 kts | 109° |
| 2026-05-05 02:03 | 42.07697 | 101.22942 | 29000 ft | 521 kts | 110° |
| 2026-05-05 02:04 | 42.05245 | 101.32123 | 29000 ft | 521 kts | 110° |
| 2026-05-05 02:04 | 42.02804 | 101.41304 | 29000 ft | 521 kts | 110° |
| 2026-05-05 02:05 | 42.00386 | 101.50423 | 29000 ft | 521 kts | 110° |
| 2026-05-05 02:05 | 41.97948 | 101.59601 | 29000 ft | 521 kts | 110° |
| 2026-05-05 02:06 | 41.95503 | 101.68770 | 29000 ft | 521 kts | 110° |
| 2026-05-05 02:06 | 41.93050 | 101.77930 | 29000 ft | 521 kts | 110° |
| 2026-05-05 02:07 | 41.90606 | 101.87024 | 29000 ft | 521 kts | 110° |
| 2026-05-05 02:07 | 41.88139 | 101.96168 | 29000 ft | 521 kts | 110° |
| 2026-05-05 02:08 | 41.85663 | 102.05309 | 29000 ft | 521 kts | 110° |
| 2026-05-05 02:08 | 41.83197 | 102.14382 | 29000 ft | 521 kts | 110° |
| 2026-05-05 02:09 | 41.80708 | 102.23507 | 29000 ft | 521 kts | 110° |
| 2026-05-05 02:09 | 41.78210 | 102.32628 | 29000 ft | 521 kts | 110° |
| 2026-05-05 02:10 | 41.75751 | 102.41648 | 29007 ft | 502 kts | 110° |
| 2026-05-05 02:10 | 41.74572 | 102.45950 | 29012 ft | 481 kts | 110° |
| 2026-05-05 02:10 | 41.73452 | 102.50011 | 29013 ft | 462 kts | 110° |
| 2026-05-05 02:11 | 41.72357 | 102.53965 | 29012 ft | 444 kts | 110° |
| 2026-05-05 02:11 | 41.71302 | 102.57762 | 29011 ft | 426 kts | 110° |
| 2026-05-05 02:11 | 41.70287 | 102.61407 | 29010 ft | 410 kts | 110° |
| 2026-05-05 02:11 | 41.69312 | 102.64907 | 29010 ft | 394 kts | 110° |
| 2026-05-05 02:12 | 41.68375 | 102.68268 | 29010 ft | 378 kts | 111° |
| 2026-05-05 02:12 | 41.66614 | 102.74585 | 29007 ft | 347 kts | 111° |
| 2026-05-05 02:12 | 41.65789 | 102.77542 | 29007 ft | 332 kts | 111° |
| 2026-05-05 02:13 | 41.65011 | 102.80327 | 29006 ft | 317 kts | 111° |
| 2026-05-05 02:13 | 41.64259 | 102.83015 | 29004 ft | 301 kts | 111° |
| 2026-05-05 02:13 | 41.63546 | 102.85561 | 29001 ft | 284 kts | 111° |
| 2026-05-05 02:13 | 41.62874 | 102.87956 | 28997 ft | 266 kts | 111° |
| 2026-05-05 02:14 | 41.62250 | 102.90182 | 28988 ft | 245 kts | 111° |
| 2026-05-05 02:14 | 41.61681 | 102.92210 | 28967 ft | 220 kts | 111° |
| 2026-05-05 02:14 | 41.61181 | 102.93993 | 28878 ft | 189 kts | 111° |
| 2026-05-05 02:14 | 41.60736 | 102.95598 | 27792 ft | 189 kts | 111° |
| 2026-05-05 02:15 | 41.60126 | 102.97085 | 24663 ft | 153 kts | 178° |
| 2026-05-05 02:15 | 41.59404 | 102.96946 | 18393 ft | 135 kts | 258° |
| 2026-05-05 02:15 | 41.59310 | 102.95395 | 12991 ft | 194 kts | 241° |
| 2026-05-05 02:15 | 41.59172 | 102.94477 | 7420 ft | 46 kts | 75° |
| 2026-05-05 02:16 | 41.58593 | 102.95590 | 3941 ft | 392 kts | 127° |
| 2026-05-05 02:16 | 41.56907 | 102.98354 | 3772 ft | 419 kts | 126° |
| 2026-05-05 02:16 | 41.55798 | 103.01313 | 3680 ft | 399 kts | 107° |
| 2026-05-05 02:16 | 41.55343 | 103.04287 | 3744 ft | 422 kts | 97° |
| 2026-05-05 02:17 | 41.55538 | 103.07721 | 3652 ft | 397 kts | 74° |
| 2026-05-05 02:17 | 41.56903 | 103.11611 | 3672 ft | 395 kts | 51° |
| 2026-05-05 02:17 | 41.58512 | 103.13744 | 3841 ft | 422 kts | 38° |
| 2026-05-05 02:17 | 41.60808 | 103.15331 | 3735 ft | 389 kts | 16° |
| 2026-05-05 02:18 | 41.62999 | 103.15885 | 3921 ft | 421 kts | 5° |
| 2026-05-05 02:18 | 41.67019 | 103.15169 | 4028 ft | 37 kts | 345° |
| 2026-05-05 02:19 | 41.67904 | 103.14958 | 6372 ft | 10 kts | 342° |
| 2026-05-05 02:19 | 41.68207 | 103.15833 | 5493 ft | 421 kts | 83° |
| 2026-05-05 02:19 | 41.68837 | 103.18001 | 11141 ft | 2 kts | 53° |
| 2026-05-05 02:19 | 41.68982 | 103.18179 | 8157 ft | 91 kts | 342° |
| 2026-05-05 02:20 | 41.69072 | 103.18227 | 4758 ft | 3 kts | 145° |
| 2026-05-05 02:20 | 41.68431 | 103.19253 | 7586 ft | 420 kts | 127° |
| 2026-05-05 02:20 | 41.68288 | 103.19501 | 6876 ft | 35 kts | 124° |
| 2026-05-05 02:20 | 41.68036 | 103.19938 | 4658 ft | 64 kts | 132° |
| 2026-05-05 02:21 | 41.67149 | 103.21226 | 7572 ft | 2 kts | 141° |
| 2026-05-05 02:21 | 41.66992 | 103.21487 | 4651 ft | 113 kts | 81° |
| 2026-05-05 02:21 | 41.66663 | 103.19384 | 7695 ft | 2 kts | 259° |
| 2026-05-05 02:22 | 41.69136 | 103.18730 | 9734 ft | 37 kts | 351° |
| 2026-05-05 02:22 | 41.69429 | 103.18429 | 4224 ft | 59 kts | 208° |
| 2026-05-05 02:23 | 41.69321 | 103.18775 | 4382 ft | 11 kts | 108° |
| 2026-05-05 02:23 | 41.69156 | 103.21173 | 10448 ft | 2 kts | 96° |
| 2026-05-05 02:23 | 41.69168 | 103.21466 | 7504 ft | 102 kts | 40° |
| 2026-05-05 02:23 | 41.69734 | 103.20957 | 5583 ft | 418 kts | 306° |
| 2026-05-05 02:24 | 41.70788 | 103.19620 | 10514 ft | 2 kts | 326° |
| 2026-05-05 02:24 | 41.70926 | 103.19399 | 7557 ft | 97 kts | 254° |
| 2026-05-05 02:24 | 41.70631 | 103.19315 | 4420 ft | 11 kts | 150° |
| 2026-05-05 02:24 | 41.69967 | 103.20121 | 6319 ft | 3 kts | 139° |
| 2026-05-05 02:25 | 41.69824 | 103.20726 | 4787 ft | 2 kts | 86° |
| 2026-05-05 02:25 | 41.69901 | 103.21174 | 4831 ft | 2 kts | 75° |
| 2026-05-05 02:25 | 41.70197 | 103.22502 | 6321 ft | 421 kts | 71° |
| 2026-05-05 02:26 | 41.71774 | 103.26350 | 15862 ft | 7 kts | 53° |
| 2026-05-05 02:26 | 41.71835 | 103.26793 | 11281 ft | 32 kts | 313° |
| 2026-05-05 02:26 | 41.71794 | 103.27056 | 4550 ft | 36 kts | 290° |
| 2026-05-05 02:27 | 41.72269 | 103.28800 | 4948 ft | 42 kts | 78° |
| 2026-05-05 02:27 | 41.72094 | 103.29377 | 4529 ft | 11 kts | 127° |
| 2026-05-05 02:27 | 41.71007 | 103.30684 | 8538 ft | 2 kts | 137° |
| 2026-05-05 02:28 | 41.70824 | 103.30794 | 5596 ft | 89 kts | 225° |
| 2026-05-05 02:28 | 41.70148 | 103.31557 | 6029 ft | 10 kts | 134° |
| 2026-05-05 02:28 | 41.69720 | 103.31550 | 4922 ft | 2 kts | 205° |
| 2026-05-05 02:28 | 41.69446 | 103.31279 | 4945 ft | 2 kts | 219° |
| 2026-05-05 02:29 | 41.68758 | 103.30488 | 6410 ft | 2 kts | 220° |
| 2026-05-05 02:29 | 41.68586 | 103.30287 | 4548 ft | 3 kts | 221° |
| 2026-05-05 02:29 | 41.67896 | 103.29475 | 6372 ft | 3 kts | 221° |
| 2026-05-05 02:30 | 41.67069 | 103.28509 | 5374 ft | 38 kts | 221° |
| 2026-05-05 02:30 | 41.66412 | 103.27727 | 5193 ft | 11 kts | 221° |
| 2026-05-05 02:30 | 41.66102 | 103.27343 | 4472 ft | 11 kts | 223° |
| 2026-05-05 02:31 | 41.65729 | 103.26872 | 4162 ft | 417 kts | 223° |
| 2026-05-05 02:31 | 41.65358 | 103.26410 | 4860 ft | 2 kts | 223° |
| 2026-05-05 02:31 | 41.64842 | 103.25772 | 6236 ft | 418 kts | 222° |
| 2026-05-05 02:31 | 41.64651 | 103.25539 | 5484 ft | 38 kts | 223° |
| 2026-05-05 02:32 | 41.63940 | 103.24602 | 6964 ft | 10 kts | 224° |
| 2026-05-05 02:32 | 41.63416 | 103.23908 | 7003 ft | 3 kts | 224° |
| 2026-05-05 02:32 | 41.63946 | 103.24044 | 4775 ft | 423 kts | 38° |
| 2026-05-05 02:33 | 41.64704 | 103.24809 | 4790 ft | 3 kts | 36° |
| 2026-05-05 02:33 | 41.65220 | 103.25297 | 5532 ft | 3 kts | 35° |
| 2026-05-05 02:33 | 41.65342 | 103.25410 | 4054 ft | 3 kts | 33° |
| 2026-05-05 02:34 | 41.66099 | 103.26054 | 6240 ft | 2 kts | 32° |
| 2026-05-05 02:34 | 41.68859 | 103.25714 | 9786 ft | 420 kts | 336° |
| 2026-05-05 02:35 | 41.69349 | 103.25373 | 9759 ft | 33 kts | 331° |
| 2026-05-05 02:35 | 41.69692 | 103.25454 | 4203 ft | 63 kts | 117° |
| 2026-05-05 02:35 | 41.69117 | 103.25326 | 5248 ft | 10 kts | 192° |
| 2026-05-05 02:35 | 41.68870 | 103.24913 | 4460 ft | 11 kts | 239° |
| 2026-05-05 02:36 | 41.68152 | 103.22658 | 8556 ft | 418 kts | 248° |
| 2026-05-05 02:36 | 41.67569 | 103.20525 | 12937 ft | 1 kts | 251° |
| 2026-05-05 02:36 | 41.67538 | 103.20283 | 9955 ft | 88 kts | 307° |
| 2026-05-05 02:36 | 41.67784 | 103.19946 | 4713 ft | 2 kts | 320° |
| 2026-05-05 02:37 | 41.68412 | 103.19512 | 5524 ft | 422 kts | 334° |
| 2026-05-05 02:37 | 41.68659 | 103.19356 | 4834 ft | 42 kts | 332° |
| 2026-05-05 02:37 | 41.70620 | 103.18656 | 7557 ft | 35 kts | 332° |
| 2026-05-05 02:38 | 41.72686 | 103.18246 | 9339 ft | 9 kts | 338° |
| 2026-05-05 02:38 | 41.73029 | 103.18351 | 4935 ft | 12 kts | 302° |
| 2026-05-05 02:38 | 41.73270 | 103.18931 | 4149 ft | 423 kts | 81° |
| 2026-05-05 02:39 | 41.73362 | 103.19623 | 4208 ft | 37 kts | 84° |
| 2026-05-05 02:39 | 41.73421 | 103.20137 | 4426 ft | 11 kts | 82° |
| 2026-05-05 02:40 | 41.73672 | 103.23049 | 9978 ft | 9 kts | 87° |
| 2026-05-05 02:40 | 41.73859 | 103.23456 | 5555 ft | 14 kts | 131° |
| 2026-05-05 02:40 | 41.74116 | 103.23343 | 4476 ft | 11 kts | 313° |
| 2026-05-05 02:40 | 41.74339 | 103.22738 | 4197 ft | 419 kts | 289° |
| 2026-05-05 02:41 | 41.74600 | 103.21791 | 5960 ft | 11 kts | 289° |
| 2026-05-05 02:41 | 41.74476 | 103.21177 | 4460 ft | 11 kts | 232° |
| 2026-05-05 02:41 | 41.73593 | 103.20141 | 7117 ft | 2 kts | 221° |
| 2026-05-05 02:41 | 41.73138 | 103.19634 | 6047 ft | 416 kts | 219° |
| 2026-05-05 02:42 | 41.72981 | 103.19460 | 5318 ft | 36 kts | 219° |
| 2026-05-05 02:42 | 41.72542 | 103.20946 | 8358 ft | 2 kts | 108° |
| 2026-05-05 02:42 | 41.72437 | 103.21182 | 5469 ft | 94 kts | 184° |
| 2026-05-05 02:42 | 41.72306 | 103.21573 | 4507 ft | 11 kts | 96° |
| 2026-05-05 02:43 | 41.71983 | 103.22695 | 6577 ft | 10 kts | 113° |
| 2026-05-05 02:43 | 41.71629 | 103.23809 | 6315 ft | 3 kts | 113° |
| 2026-05-05 02:43 | 41.71510 | 103.24180 | 4592 ft | 422 kts | 114° |
| 2026-05-05 02:43 | 41.71268 | 103.24871 | 4890 ft | 2 kts | 115° |
| 2026-05-05 02:44 | 41.71088 | 103.25269 | 4893 ft | 4 kts | 123° |
| 2026-05-05 02:44 | 41.70890 | 103.25649 | 4911 ft | 3 kts | 126° |
| 2026-05-05 02:44 | 41.70493 | 103.26300 | 5654 ft | 3 kts | 130° |
| 2026-05-05 02:44 | 41.70206 | 103.26730 | 4929 ft | 2 kts | 133° |
| 2026-05-05 02:45 | 41.69765 | 103.27328 | 5665 ft | 2 kts | 135° |
| 2026-05-05 02:45 | 41.69648 | 103.27477 | 4139 ft | 3 kts | 139° |
| 2026-05-05 02:45 | 41.68829 | 103.28315 | 4870 ft | 40 kts | 148° |
| 2026-05-05 02:46 | 41.68372 | 103.28365 | 4508 ft | 11 kts | 185° |
| 2026-05-05 02:46 | 41.67765 | 103.28141 | 5894 ft | 10 kts | 198° |
| 2026-05-05 02:46 | 41.67444 | 103.27665 | 4940 ft | 2 kts | 241° |
| 2026-05-05 02:46 | 41.67239 | 103.26905 | 6296 ft | 2 kts | 251° |
| 2026-05-05 02:47 | 41.67321 | 103.26240 | 4849 ft | 3 kts | 292° |
| 2026-05-05 02:47 | 41.67619 | 103.25532 | 6888 ft | 421 kts | 300° |
| 2026-05-05 02:47 | 41.68633 | 103.23370 | 13902 ft | 421 kts | 304° |
| 2026-05-05 02:47 | 41.68770 | 103.23101 | 13125 ft | 37 kts | 300° |
| 2026-05-05 02:48 | 41.68779 | 103.22590 | 7429 ft | 64 kts | 174° |
| 2026-05-05 02:48 | 41.68319 | 103.24486 | 6963 ft | 34 kts | 97° |
| 2026-05-05 02:48 | 41.68038 | 103.24936 | 4837 ft | 2 kts | 109° |
| 2026-05-05 02:49 | 41.67827 | 103.25328 | 4427 ft | 11 kts | 132° |
| 2026-05-05 02:49 | 41.67577 | 103.25650 | 4425 ft | 11 kts | 138° |
| 2026-05-05 02:49 | 41.66760 | 103.26493 | 4123 ft | 40 kts | 147° |
| 2026-05-05 02:50 | 41.66071 | 103.27053 | 5555 ft | 420 kts | 149° |
| 2026-05-05 02:50 | 41.65861 | 103.27219 | 4826 ft | 41 kts | 152° |
| 2026-05-05 02:50 | 41.64582 | 103.26827 | 5922 ft | 10 kts | 204° |
| 2026-05-05 02:51 | 41.64182 | 103.25535 | 6955 ft | 2 kts | 246° |
| 2026-05-05 02:51 | 41.64057 | 103.25318 | 4108 ft | 93 kts | 167° |
| 2026-05-05 02:51 | 41.63948 | 103.25877 | 4109 ft | 423 kts | 84° |
| 2026-05-05 02:51 | 41.64025 | 103.26888 | 5843 ft | 11 kts | 85° |
| 2026-05-05 02:52 | 41.64555 | 103.27660 | 5568 ft | 2 kts | 44° |
| 2026-05-05 02:52 | 41.66141 | 103.29634 | 10089 ft | 9 kts | 22° |
| 2026-05-05 02:52 | 41.66383 | 103.29540 | 5621 ft | 11 kts | 46° |
| 2026-05-05 02:53 | 41.66294 | 103.29378 | 4473 ft | 10 kts | 203° |
| 2026-05-05 02:53 | 41.65676 | 103.29263 | 5209 ft | 11 kts | 186° |
| 2026-05-05 02:53 | 41.64956 | 103.29167 | 5149 ft | 11 kts | 187° |
| 2026-05-05 02:53 | 41.64542 | 103.29093 | 4849 ft | 2 kts | 188° |
| 2026-05-05 02:54 | 41.63928 | 103.28954 | 5602 ft | 3 kts | 190° |
| 2026-05-05 02:54 | 41.63212 | 103.28757 | 5543 ft | 2 kts | 192° |
| 2026-05-05 02:54 | 41.62700 | 103.28599 | 4797 ft | 418 kts | 193° |
| 2026-05-05 02:55 | 41.60999 | 103.27974 | 3992 ft | 3 kts | 197° |
| 2026-05-05 02:55 | 41.60417 | 103.27718 | 5436 ft | 3 kts | 198° |
| 2026-05-05 02:56 | 41.59654 | 103.27354 | 5453 ft | 418 kts | 200° |
| 2026-05-05 02:56 | 41.59410 | 103.27236 | 4700 ft | 42 kts | 201° |
| 2026-05-05 02:56 | 41.58961 | 103.26995 | 4692 ft | 2 kts | 202° |
| 2026-05-05 02:56 | 41.58626 | 103.26807 | 4260 ft | 11 kts | 204° |
| 2026-05-05 02:57 | 41.57435 | 103.26096 | 6900 ft | 417 kts | 204° |
| 2026-05-05 02:57 | 41.56211 | 103.25347 | 10762 ft | 9 kts | 205° |
| 2026-05-05 02:57 | 41.55855 | 103.25114 | 8575 ft | 2 kts | 207° |
| 2026-05-05 02:57 | 41.55583 | 103.24928 | 5802 ft | 114 kts | 201° |
| 2026-05-05 02:58 | 41.54914 | 103.24406 | 5297 ft | 2 kts | 229° |
| 2026-05-05 02:58 | 41.54786 | 103.24252 | 3387 ft | 28 kts | 212° |
| 2026-05-05 02:58 | 41.54381 | 103.23912 | 3859 ft | 418 kts | 212° |
| 2026-05-05 02:58 | 41.53954 | 103.23548 | 4588 ft | 2 kts | 213° |
| 2026-05-05 02:59 | 41.53327 | 103.23006 | 5339 ft | 417 kts | 213° |
| 2026-05-05 02:59 | 41.52703 | 103.22467 | 7103 ft | 10 kts | 213° |
| 2026-05-05 02:59 | 41.52497 | 103.22292 | 5159 ft | 24 kts | 212° |
| 2026-05-05 02:59 | 41.51985 | 103.21885 | 4062 ft | 11 kts | 212° |
| 2026-05-05 03:00 | 41.51430 | 103.21488 | 5463 ft | 10 kts | 208° |
| 2026-05-05 03:00 | 41.50589 | 103.21586 | 5161 ft | 417 kts | 171° |
| 2026-05-05 03:00 | 41.48559 | 103.21160 | 11540 ft | 416 kts | 209° |
| 2026-05-05 03:00 | 41.47661 | 103.20144 | 14655 ft | 7 kts | 232° |
| 2026-05-05 03:01 | 41.47633 | 103.19788 | 10097 ft | 13 kts | 165° |
| 2026-05-05 03:01 | 41.47695 | 103.19611 | 3457 ft | 39 kts | 136° |
| 2026-05-05 03:01 | 41.47107 | 103.19566 | 4695 ft | 11 kts | 185° |
| 2026-05-05 03:01 | 41.46613 | 103.18988 | 4663 ft | 11 kts | 223° |
| 2026-05-05 03:02 | 41.46011 | 103.18655 | 5073 ft | 2 kts | 205° |
| 2026-05-05 03:02 | 41.45330 | 103.18756 | 5732 ft | 420 kts | 175° |
| 2026-05-05 03:02 | 41.44993 | 103.18784 | 5005 ft | 37 kts | 169° |
| 2026-05-05 03:02 | 41.44837 | 103.19743 | 4623 ft | 11 kts | 78° |
| 2026-05-05 03:03 | 41.45604 | 103.21609 | 8556 ft | 2 kts | 66° |
| 2026-05-05 03:03 | 41.45739 | 103.21873 | 5641 ft | 111 kts | 9° |
| 2026-05-05 03:03 | 41.46912 | 103.22752 | 7203 ft | 2 kts | 38° |
| 2026-05-05 03:04 | 41.47105 | 103.22860 | 4297 ft | 95 kts | 326° |
| 2026-05-05 03:04 | 41.46649 | 103.22860 | 4684 ft | 11 kts | 173° |
| 2026-05-05 03:04 | 41.46212 | 103.23520 | 4659 ft | 10 kts | 131° |
| 2026-05-05 03:04 | 41.45828 | 103.24826 | 5834 ft | 419 kts | 118° |
| 2026-05-05 03:05 | 41.44889 | 103.26295 | 10110 ft | 2 kts | 145° |
| 2026-05-05 03:05 | 41.44734 | 103.26512 | 7188 ft | 105 kts | 89° |
| 2026-05-05 03:05 | 41.45232 | 103.26616 | 5151 ft | 3 kts | 340° |
| 2026-05-05 03:05 | 41.45881 | 103.26346 | 5135 ft | 3 kts | 337° |
| 2026-05-05 03:06 | 41.47174 | 103.25190 | 7529 ft | 10 kts | 335° |
| 2026-05-05 03:06 | 41.47916 | 103.24694 | 4384 ft | 41 kts | 330° |
| 2026-05-05 03:07 | 41.48132 | 103.24172 | 3962 ft | 11 kts | 283° |
| 2026-05-05 03:07 | 41.48181 | 103.22978 | 5441 ft | 11 kts | 273° |
| 2026-05-05 03:07 | 41.47722 | 103.22228 | 5101 ft | 2 kts | 222° |
| 2026-05-05 03:07 | 41.47611 | 103.22102 | 3637 ft | 3 kts | 218° |
| 2026-05-05 03:08 | 41.46643 | 103.21113 | 7197 ft | 419 kts | 215° |
| 2026-05-05 03:08 | 41.45661 | 103.20292 | 10327 ft | 9 kts | 211° |
| 2026-05-05 03:08 | 41.45447 | 103.19794 | 6147 ft | 40 kts | 147° |
| 2026-05-05 03:08 | 41.45059 | 103.21074 | 7186 ft | 421 kts | 106° |
| 2026-05-05 03:09 | 41.44937 | 103.21836 | 7170 ft | 39 kts | 120° |
| 2026-05-05 03:09 | 41.44471 | 103.22172 | 4367 ft | 3 kts | 159° |
| 2026-05-05 03:09 | 41.43859 | 103.22246 | 5117 ft | 3 kts | 175° |
| 2026-05-05 03:09 | 41.43405 | 103.22272 | 5062 ft | 420 kts | 178° |
| 2026-05-05 03:10 | 41.41963 | 103.22427 | 8300 ft | 9 kts | 174° |
| 2026-05-05 03:10 | 41.41547 | 103.22202 | 4228 ft | 40 kts | 115° |
| 2026-05-05 03:10 | 41.41229 | 103.22002 | 4133 ft | 11 kts | 208° |
| 2026-05-05 03:10 | 41.40330 | 103.21032 | 8676 ft | 2 kts | 217° |
| 2026-05-05 03:11 | 41.40173 | 103.20807 | 5764 ft | 107 kts | 273° |
| 2026-05-05 03:11 | 41.40109 | 103.20243 | 4036 ft | 11 kts | 254° |
| 2026-05-05 03:11 | 41.40045 | 103.19029 | 6163 ft | 11 kts | 264° |
| 2026-05-05 03:11 | 41.40003 | 103.18556 | 4083 ft | 20 kts | 260° |
| 2026-05-05 03:12 | 41.39809 | 103.17332 | 5932 ft | 4 kts | 257° |
| 2026-05-05 03:12 | 41.38132 | 103.15315 | 10125 ft | 2 kts | 235° |
| 2026-05-05 03:12 | 41.37963 | 103.15134 | 7164 ft | 97 kts | 161° |
| 2026-05-05 03:13 | 41.38083 | 103.15921 | 5913 ft | 421 kts | 57° |
| 2026-05-05 03:13 | 41.38845 | 103.18562 | 12286 ft | 422 kts | 78° |
| 2026-05-05 03:13 | 41.38925 | 103.19367 | 12901 ft | 30 kts | 69° |
| 2026-05-05 03:13 | 41.39175 | 103.19649 | 7199 ft | 64 kts | 306° |
| 2026-05-05 03:14 | 41.38853 | 103.19119 | 5241 ft | 2 kts | 226° |
| 2026-05-05 03:14 | 41.38356 | 103.19040 | 4522 ft | 414 kts | 180° |
| 2026-05-05 03:15 | 41.37205 | 103.19695 | 3860 ft | 38 kts | 152° |
| 2026-05-05 03:15 | 41.36577 | 103.20064 | 3833 ft | 38 kts | 166° |
| 2026-05-05 03:15 | 41.36069 | 103.20140 | 4570 ft | 418 kts | 175° |
| 2026-05-05 03:15 | 41.35658 | 103.20188 | 3914 ft | 419 kts | 176° |
| 2026-05-05 03:16 | 41.35056 | 103.20218 | 4687 ft | 419 kts | 179° |
| 2026-05-05 03:16 | 41.34591 | 103.20194 | 3966 ft | 416 kts | 189° |
| 2026-05-05 03:16 | 41.34113 | 103.20131 | 3941 ft | 39 kts | 195° |
| 2026-05-05 03:16 | 41.33652 | 103.19895 | 4007 ft | 419 kts | 205° |
| 2026-05-05 03:17 | 41.33148 | 103.19586 | 4026 ft | 39 kts | 207° |
| 2026-05-05 03:17 | 41.32445 | 103.19122 | 5469 ft | 418 kts | 206° |
| 2026-05-05 03:17 | 41.32217 | 103.18974 | 4762 ft | 40 kts | 207° |
| 2026-05-05 03:17 | 41.31534 | 103.18489 | 6178 ft | 2 kts | 208° |
| 2026-05-05 03:18 | 41.31281 | 103.18174 | 4155 ft | 416 kts | 240° |
| 2026-05-05 03:18 | 41.30637 | 103.17110 | 7285 ft | 9 kts | 222° |
| 2026-05-05 03:18 | 41.30774 | 103.16961 | 5129 ft | 2 kts | 39° |
| 2026-05-05 03:18 | 41.30986 | 103.17331 | 5096 ft | 2 kts | 55° |
| 2026-05-05 03:19 | 41.31989 | 103.19334 | 8198 ft | 10 kts | 54° |
| 2026-05-05 03:19 | 41.32195 | 103.19735 | 5904 ft | 20 kts | 56° |
| 2026-05-05 03:19 | 41.32776 | 103.20602 | 5483 ft | 2 kts | 50° |
| 2026-05-05 03:20 | 41.33098 | 103.21091 | 4762 ft | 424 kts | 49° |
| 2026-05-05 03:20 | 41.34389 | 103.23216 | 10553 ft | 423 kts | 53° |
| 2026-05-05 03:20 | 41.34888 | 103.24107 | 12314 ft | 8 kts | 54° |
| 2026-05-05 03:20 | 41.34890 | 103.24471 | 7820 ft | 10 kts | 354° |
| 2026-05-05 03:21 | 41.34791 | 103.24985 | 4276 ft | 11 kts | 109° |
| 2026-05-05 03:21 | 41.34600 | 103.25369 | 4279 ft | 11 kts | 128° |
| 2026-05-05 03:21 | 41.34191 | 103.26007 | 5010 ft | 11 kts | 132° |
| 2026-05-05 03:21 | 41.33515 | 103.26957 | 6168 ft | 3 kts | 134° |
| 2026-05-05 03:22 | 41.32932 | 103.27189 | 4718 ft | 418 kts | 175° |
| 2026-05-05 03:22 | 41.31527 | 103.27716 | 7172 ft | 9 kts | 174° |
| 2026-05-05 03:23 | 41.32049 | 103.24089 | 10643 ft | 418 kts | 291° |
| 2026-05-05 03:23 | 41.32288 | 103.23385 | 10643 ft | 36 kts | 289° |
| 2026-05-05 03:23 | 41.32219 | 103.22883 | 5123 ft | 63 kts | 157° |
| 2026-05-05 03:24 | 41.32327 | 103.22605 | 4430 ft | 11 kts | 300° |
| 2026-05-05 03:24 | 41.32517 | 103.21803 | 5075 ft | 11 kts | 283° |
| 2026-05-05 03:24 | 41.32626 | 103.21238 | 4317 ft | 11 kts | 283° |
| 2026-05-05 03:24 | 41.32815 | 103.20053 | 5794 ft | 11 kts | 279° |
| 2026-05-05 03:25 | 41.32540 | 103.19126 | 5473 ft | 2 kts | 242° |
| 2026-05-05 03:25 | 41.32472 | 103.18970 | 4071 ft | 3 kts | 235° |
| 2026-05-05 03:25 | 41.32115 | 103.18287 | 5071 ft | 11 kts | 235° |
| 2026-05-05 03:25 | 41.31930 | 103.17843 | 5509 ft | 2 kts | 242° |
| 2026-05-05 03:26 | 41.31611 | 103.17040 | 5647 ft | 2 kts | 241° |
| 2026-05-05 03:26 | 41.31521 | 103.16776 | 4983 ft | 3 kts | 249° |
| 2026-05-05 03:26 | 41.31308 | 103.16000 | 5819 ft | 3 kts | 249° |
| 2026-05-05 03:26 | 41.31192 | 103.15452 | 5093 ft | 2 kts | 254° |
| 2026-05-05 03:27 | 41.30955 | 103.14182 | 6594 ft | 419 kts | 255° |
| 2026-05-05 03:27 | 41.30888 | 103.13839 | 5895 ft | 35 kts | 255° |